M I D A S
Marine Information and Data Acquisition System
Tripno 661 of the Zeeleeuw from 2004-03-04 07:28:48 to 2004-03-04 15:23:20
Back to CruiseResearch ActivitiesStationsMapUnderway DataData graphs

EquipmentUnitsComment
TimeDGPSUTC
LatitudeDGPSDM.mWGS84
LongitudeDGPSDM.mWGS84
TemperatureSBE03/SBE38deg celciusITS90
ConductivitySBE21S/mITS90
SalinitySBE21 Practical Salinity Units
ChlorophylAChelsea fluorimeterg/lCalibrated in Aceton
Missing or incorrect values are displayed as -999
Sea surface data collected by the RV Zeeleeuw from 2004-03-04 07:28:48 to 2004-03-04 15:23:20
                                                                                    Next 1000 lines
Time Latitude Longitude Temperature Conductivity Salinity ChlorophylA
2004-03-04 07:28:57 51°13.611 2°56.038 12.344241 3.968045 32.013231 -0.444155
2004-03-04 07:29:02 51°13.614 2°56.029 12.344241 3.968045 32.013231 -0.444155
2004-03-04 07:29:07 51°13.616 2°56.02 12.349536 3.967834 32.011954 -0.444155
2004-03-04 07:29:12 51°13.619 2°56.011 12.354605 3.967834 32.012574 -0.477864
2004-03-04 07:29:18 51°13.622 2°56 12.328171 3.967834 32.012574 -0.477864
2004-03-04 07:29:22 51°13.624 2°55.993 12.372523 3.967729 32.012245 -0.444155
2004-03-04 07:29:27 51°13.627 2°55.983 12.40839 3.967729 32.012245 -0.444155
2004-03-04 07:29:32 51°13.63 2°55.973 12.40839 3.967729 32.012245 -0.444155
2004-03-04 07:29:37 51°13.633 2°55.963 12.42349 3.967624 32.011297 -0.444155
2004-03-04 07:29:42 51°13.636 2°55.953 12.427378 3.967624 32.011297 -0.444155
2004-03-04 07:29:47 51°13.639 2°55.943 12.400883 3.967413 32.01064 -0.477864
2004-03-04 07:29:52 51°13.642 2°55.933 12.40337 3.967413 32.011259 -0.477864
2004-03-04 07:29:56 51°13.644 2°55.925 12.395682 3.967307 32.010311 -0.477864
2004-03-04 07:30:02 51°13.647 2°55.912 12.395682 3.967307 32.010311 -0.477864
2004-03-04 07:30:07 51°13.65 2°55.901 12.391431 3.967307 32.010931 -0.477864
2004-03-04 07:30:12 51°13.653 2°55.89 12.398305 3.967202 32.010602 -0.477864
2004-03-04 07:30:16 51°13.655 2°55.881 12.405722 3.967097 32.010273 -0.444155
2004-03-04 07:30:22 51°13.658 2°55.868 12.390979 3.966991 32.008706 -0.477864
2004-03-04 07:30:27 51°13.66 2°55.857 12.385687 3.967097 32.010273 -0.444155
2004-03-04 07:30:32 51°13.662 2°55.846 12.385687 3.967097 32.010273 -0.444155
2004-03-04 07:30:37 51°13.664 2°55.835 12.383696 3.966991 32.009325 -0.444155
2004-03-04 07:30:42 51°13.665 2°55.823 12.410334 3.966991 32.009325 -0.477864
2004-03-04 07:30:47 51°13.667 2°55.812 12.423535 3.96678 32.008049 -0.444155
2004-03-04 07:30:52 51°13.668 2°55.802 12.439266 3.96678 32.008049 -0.477864
2004-03-04 07:30:58 51°13.669 2°55.791 12.423988 3.96678 32.008668 -0.444155
2004-03-04 07:31:02 51°13.67 2°55.785 12.423988 3.96678 32.008668 -0.444155
2004-03-04 07:31:07 51°13.67 2°55.778 12.453004 3.966675 32.007101 -0.477864
2004-03-04 07:31:11 51°13.671 2°55.773 12.532485 3.966569 32.007391 -0.477864
2004-03-04 07:31:16 51°13.671 2°55.769 12.330842 3.966569 32.006153 -0.444155
2004-03-04 07:31:22 51°13.671 2°55.767 12.575256 3.966464 32.005205 -0.444155
2004-03-04 07:31:26 51°13.672 2°55.767 12.48833 3.966464 32.005205 -0.444155
2004-03-04 07:31:30 51°13.673 2°55.767 12.48833 3.966464 32.005205 -0.444155
2004-03-04 07:31:36 51°13.674 2°55.769 12.547738 3.966359 32.005495 -0.444155
2004-03-04 07:31:40 51°13.676 2°55.771 12.625348 3.966359 32.006734 -0.477864
2004-03-04 07:31:46 51°13.679 2°55.774 12.67432 3.966253 32.006405 -0.477864
2004-03-04 07:31:51 51°13.682 2°55.777 12.686389 3.966253 32.008883 -0.477864
2004-03-04 07:31:56 51°13.686 2°55.779 12.665628 3.966148 32.009793 -0.444155
2004-03-04 07:32:02 51°13.692 2°55.781 12.665628 3.966148 32.009793 -0.444155
2004-03-04 07:32:06 51°13.696 2°55.782 11.169277 3.966992 32.039083 0.465999
2004-03-04 07:32:11 51°13.702 2°55.781 8.010784 3.882238 31.232185 0.297452
2004-03-04 07:32:16 51°13.708 2°55.779 6.49424 2.957693 23.089801 4.34258
2004-03-04 07:32:22 51°13.715 2°55.774 5.710768 3.251336 26.030247 3.533554
2004-03-04 07:32:26 51°13.719 2°55.77 5.452457 3.684441 31.472561 2.488563
2004-03-04 07:32:31 51°13.725 2°55.764 5.452457 3.684441 31.472561 2.488563
2004-03-04 07:32:36 51°13.73 2°55.758 5.280787 3.032057 26.987517 3.634683
2004-03-04 07:32:42 51°13.735 2°55.749 5.142911 2.952917 27.71742 5.758375
2004-03-04 07:32:46 51°13.74 2°55.743 5.117406 2.693008 25.823819 6.499982
2004-03-04 07:32:51 51°13.745 2°55.735 5.125706 2.599604 25.364878 6.837076
2004-03-04 07:32:56 51°13.751 2°55.726 4.966791 2.513156 24.72736 6.837076
2004-03-04 07:33:02 51°13.759 2°55.715 4.966791 2.513156 24.72736 6.837076
2004-03-04 07:33:06 51°13.764 2°55.707 4.928828 2.428616 23.978069 7.106751
2004-03-04 07:33:11 51°13.771 2°55.697 4.975264 2.319285 22.902873 7.039332
2004-03-04 07:33:16 51°13.778 2°55.687 4.930503 2.294164 22.700432 6.904494
2004-03-04 07:33:22 51°13.787 2°55.674 4.960855 2.260427 22.400743 6.803366
2004-03-04 07:33:26 51°13.794 2°55.666 4.814289 2.243087 22.266496 6.702238
2004-03-04 07:33:30 51°13.8 2°55.658 4.814289 2.243087 22.266496 6.702238
2004-03-04 07:33:36 51°13.811 2°55.646 4.965117 2.211665 21.942619 6.803366
2004-03-04 07:33:40 51°13.818 2°55.639 4.822528 2.194432 21.77724 6.398853
2004-03-04 07:33:47 51°13.831 2°55.627 4.81907 2.164696 21.475505 6.061759
2004-03-04 07:33:52 51°13.841 2°55.619 4.866147 2.156396 21.41904 5.994341
2004-03-04 07:33:56 51°13.849 2°55.613 4.797452 2.164486 21.499594 5.758375
2004-03-04 07:34:00 51°13.857 2°55.607 4.797452 2.164486 21.499594 5.758375
2004-03-04 07:34:06 51°13.869 2°55.598 4.884389 2.181508 21.714582 5.724665
2004-03-04 07:34:11 51°13.88 2°55.59 4.764985 2.222596 22.193616 5.792084
2004-03-04 07:34:16 51°13.89 2°55.582 4.763967 2.248869 22.481394 5.926922
2004-03-04 07:34:22 51°13.903 2°55.573 4.834783 2.26621 22.684257 5.859503
2004-03-04 07:34:26 51°13.912 2°55.567 4.747879 2.269363 22.715229 6.162888
2004-03-04 07:34:30 51°13.92 2°55.561 4.747879 2.269363 22.715229 6.162888
2004-03-04 07:34:36 51°13.933 2°55.552 4.77608 2.292381 22.988054 6.129178
2004-03-04 07:34:42 51°13.946 2°55.542 4.764374 2.289438 22.973231 6.297725
2004-03-04 07:34:46 51°13.954 2°55.536 4.73907 2.313403 23.2385 6.398853
2004-03-04 07:34:52 51°13.967 2°55.527 4.767275 2.344938 23.604295 6.095469
2004-03-04 07:34:56 51°13.976 2°55.521 4.760098 2.412325 24.352586 6.331435
2004-03-04 07:35:02 51°13.989 2°55.513 4.760098 2.412325 24.352586 6.331435
2004-03-04 07:35:06 51°13.998 2°55.506 4.741107 2.455749 24.835077 6.398853
2004-03-04 07:35:10 51°14.007 2°55.5 4.784375 2.49066 25.230031 6.331435
2004-03-04 07:35:16 51°14.02 2°55.491 4.755873 2.512743 25.471662 6.264016
2004-03-04 07:35:22 51°14.032 2°55.481 4.706471 2.534513 25.726232 6.365144
2004-03-04 07:35:26 51°14.041 2°55.475 4.712839 2.544924 25.851837 6.264016
2004-03-04 07:35:32 51°14.054 2°55.465 4.712839 2.544924 25.851837 6.264016
2004-03-04 07:35:36 51°14.062 2°55.458 4.695822 2.552917 25.932833 6.061759
2004-03-04 07:35:40 51°14.071 2°55.452 4.683132 2.562067 26.043856 5.994341
2004-03-04 07:35:47 51°14.086 2°55.441 4.674314 2.562804 26.068551 5.859503
2004-03-04 07:35:52 51°14.097 2°55.433 4.689095 2.558702 26.029582 5.859503
2004-03-04 07:35:56 51°14.106 2°55.427 4.691337 2.558071 26.039002 5.690956
2004-03-04 07:36:02 51°14.118 2°55.417 4.691337 2.558071 26.039002 5.690956
2004-03-04 07:36:07 51°14.129 2°55.409 4.690267 2.546608 25.920434 5.589828
2004-03-04 07:36:12 51°14.14 2°55.4 4.685018 2.526836 25.709024 5.421281
2004-03-04 07:36:16 51°14.148 2°55.393 4.65856 2.536722 25.818807 5.4887
2004-03-04 07:36:22 51°14.161 2°55.382 4.659478 2.536932 25.826611 5.252734
2004-03-04 07:36:27 51°14.171 2°55.372 4.652951 2.541665 25.876792 5.353862
2004-03-04 07:36:32 51°14.18 2°55.362 4.652951 2.541665 25.876792 5.353862
2004-03-04 07:36:36 51°14.188 2°55.353 4.664169 2.545661 25.926271 5.084187
2004-03-04 07:36:42 51°14.199 2°55.34 4.652747 2.551972 26.005789 5.117896
2004-03-04 07:36:47 51°14.208 2°55.328 4.64928 2.550184 25.988524 5.016768
2004-03-04 07:36:52 51°14.217 2°55.316 4.649127 2.570798 26.227687 4.983059
2004-03-04 07:36:56 51°14.224 2°55.306 4.640967 2.579422 26.325765 4.949349
2004-03-04 07:37:02 51°14.235 2°55.29 4.640967 2.579422 26.325765 4.949349
2004-03-04 07:37:07 51°14.244 2°55.276 4.636427 2.581946 26.356859 5.016768
2004-03-04 07:37:12 51°14.254 2°55.261 4.642752 2.576793 26.299756 5.219024
2004-03-04 07:37:16 51°14.262 2°55.248 4.635662 2.564487 26.165267 4.983059
2004-03-04 07:37:22 51°14.275 2°55.227 4.62597 2.549027 25.997551 5.252734
2004-03-04 07:37:26 51°14.284 2°55.213 4.630867 2.530307 25.793413 4.983059
2004-03-04 07:37:31 51°14.295 2°55.195 4.630867 2.530307 25.793413 4.983059
2004-03-04 07:37:36 51°14.307 2°55.176 4.637702 2.522209 25.703472 5.151606
2004-03-04 07:37:42 51°14.32 2°55.154 4.646169 2.521053 25.693247 4.88193
2004-03-04 07:37:46 51°14.329 2°55.139 4.623266 2.53178 25.820136 4.780802
2004-03-04 07:37:52 51°14.342 2°55.115 4.613011 2.534514 25.853495 4.780802
2004-03-04 07:37:56 51°14.351 2°55.098 4.631428 2.540719 25.920266 5.117896
2004-03-04 07:38:02 51°14.364 2°55.073 4.631428 2.540719 25.920266 5.117896
2004-03-04 07:38:07 51°14.374 2°55.052 4.640304 2.542296 25.935196 4.848221
2004-03-04 07:38:11 51°14.383 2°55.035 4.61796 2.562489 26.165003 5.117896
2004-03-04 07:38:16 51°14.393 2°55.014 4.610562 2.581 26.379709 5.151606
2004-03-04 07:38:22 51°14.406 2°54.988 4.603622 2.5952 26.542035 5.421281
2004-03-04 07:38:26 51°14.414 2°54.971 4.613929 2.611608 26.723704 5.522409
2004-03-04 07:38:31 51°14.424 2°54.948 4.613929 2.611608 26.723704 5.522409
2004-03-04 07:38:36 51°14.433 2°54.925 4.603111 2.622022 26.847966 5.421281
2004-03-04 07:38:40 51°14.44 2°54.906 4.595507 2.628017 26.919743 5.286443
2004-03-04 07:38:46 51°14.449 2°54.876 4.595303 2.643691 27.101346 5.286443
2004-03-04 07:38:51 51°14.455 2°54.851 4.602295 2.637064 27.028085 5.421281
2004-03-04 07:38:56 51°14.462 2°54.825 4.603264 2.677669 27.48907 5.623537
2004-03-04 07:39:00 51°14.466 2°54.804 4.603264 2.677669 27.48907 5.623537
2004-03-04 07:39:06 51°14.474 2°54.773 4.612348 2.707126 27.827158 5.522409
2004-03-04 07:39:11 51°14.478 2°54.746 4.612144 2.744266 28.252184 5.556118
2004-03-04 07:39:16 51°14.482 2°54.719 4.606786 2.762679 28.460999 5.556118
2004-03-04 07:39:22 51°14.484 2°54.686 4.623215 2.778883 28.641125 5.556118
2004-03-04 07:39:26 51°14.486 2°54.664 4.614542 2.800033 28.878317 5.4887
2004-03-04 07:39:31 51°14.486 2°54.636 4.614542 2.800033 28.878317 5.4887
2004-03-04 07:39:36 51°14.486 2°54.608 4.61398 2.814659 29.043829 5.522409
2004-03-04 07:39:42 51°14.485 2°54.575 4.605357 2.823709 29.14754 5.4887
2004-03-04 07:39:46 51°14.484 2°54.552 4.61046 2.827077 29.182763 5.4887
2004-03-04 07:39:51 51°14.483 2°54.525 4.613164 2.848755 29.431116 5.387571
2004-03-04 07:39:56 51°14.481 2°54.497 4.621481 2.824867 29.15762 5.45499
2004-03-04 07:40:02 51°14.476 2°54.466 4.621481 2.824867 29.15762 5.45499
2004-03-04 07:40:06 51°14.473 2°54.447 4.606326 2.853806 29.491008 5.151606
2004-03-04 07:40:11 51°14.468 2°54.425 4.617858 2.851281 29.46223 4.848221
2004-03-04 07:40:16 51°14.463 2°54.406 4.601631 2.82613 29.175853 5.219024
2004-03-04 07:40:21 51°14.458 2°54.388 4.598926 2.845072 29.390721 5.084187
2004-03-04 07:40:26 51°14.453 2°54.371 4.60107 2.85086 29.462119 5.185315
2004-03-04 07:40:30 51°14.45 2°54.357 4.60107 2.85086 29.462119 5.185315
2004-03-04 07:40:36 51°14.446 2°54.338 4.593669 2.837495 29.308323 5.320153
2004-03-04 07:40:40 51°14.444 2°54.326 4.597038 2.849913 29.456012 4.814512
2004-03-04 07:40:47 51°14.441 2°54.306 4.592955 2.835285 29.290924 5.151606
2004-03-04 07:40:52 51°14.439 2°54.293 4.591423 2.847913 29.436348 5.117896
2004-03-04 07:40:56 51°14.438 2°54.283 4.589382 2.843388 29.386342 4.814512
2004-03-04 07:41:02 51°14.437 2°54.269 4.589382 2.843388 29.386342 4.814512
2004-03-04 07:41:06 51°14.436 2°54.26 4.593006 2.81024 29.008948 4.814512
2004-03-04 07:41:11 51°14.436 2°54.251 4.587799 2.833286 29.274363 4.747093
2004-03-04 07:41:16 51°14.435 2°54.241 4.587952 2.83297 29.271544 4.679674
2004-03-04 07:41:22 51°14.436 2°54.231 4.597855 2.851491 29.484946 4.544836
2004-03-04 07:41:26 51°14.436 2°54.224 4.588565 2.823183 29.165515 5.084187
2004-03-04 07:41:31 51°14.437 2°54.216 4.588565 2.823183 29.165515 5.084187
2004-03-04 07:41:36 51°14.437 2°54.208 4.586829 2.8577 29.5581 4.780802
2004-03-04 07:41:42 51°14.438 2°54.199 4.582848 2.864962 29.641725 4.645965
2004-03-04 07:41:46 51°14.438 2°54.193 4.582031 2.876328 29.77066 4.679674
2004-03-04 07:41:52 51°14.439 2°54.185 4.583154 2.842231 29.383281 4.645965
2004-03-04 07:41:56 51°14.439 2°54.179 4.578763 2.89001 29.93167 4.612255
2004-03-04 07:42:02 51°14.44 2°54.171 4.578763 2.89001 29.93167 4.612255
2004-03-04 07:42:06 51°14.441 2°54.165 4.583511 2.886221 29.891556 4.544836
2004-03-04 07:42:11 51°14.442 2°54.159 4.584175 2.884221 29.868712 4.612255
2004-03-04 07:42:16 51°14.442 2°54.153 4.586931 2.892852 29.968911 4.645965
2004-03-04 07:42:22 51°14.443 2°54.145 4.587238 2.890641 29.946036 4.713383
2004-03-04 07:42:26 51°14.443 2°54.14 4.580908 2.876118 29.778526 4.511127
2004-03-04 07:42:32 51°14.443 2°54.133 4.580908 2.876118 29.778526 4.511127
2004-03-04 07:42:36 51°14.444 2°54.128 4.587187 2.902745 30.082807 4.578546
2004-03-04 07:42:42 51°14.444 2°54.121 4.584379 2.896219 30.008999 4.477418
2004-03-04 07:42:46 51°14.444 2°54.117 4.582899 2.897377 30.021437 4.511127
2004-03-04 07:42:51 51°14.444 2°54.111 4.581827 2.904113 30.099252 4.544836
2004-03-04 07:42:56 51°14.444 2°54.106 4.585757 2.859279 29.587094 4.645965
2004-03-04 07:43:02 51°14.444 2°54.099 4.585757 2.859279 29.587094 4.645965
2004-03-04 07:43:06 51°14.444 2°54.095 4.58831 2.901061 30.065946 4.511127
2004-03-04 07:43:11 51°14.444 2°54.09 4.583818 2.901377 30.070354 4.477418
2004-03-04 07:43:16 51°14.444 2°54.085 4.580959 2.897798 30.030234 4.477418
2004-03-04 07:43:20 51°14.444 2°54.081 4.583001 2.89843 30.03586 4.578546
2004-03-04 07:43:26 51°14.444 2°54.075 4.586727 2.89443 29.989342 4.511127
2004-03-04 07:43:31 51°14.444 2°54.071 4.586727 2.89443 29.989342 4.511127
2004-03-04 07:43:36 51°14.444 2°54.066 4.587493 2.899272 30.04469 4.645965
2004-03-04 07:43:42 51°14.443 2°54.06 4.58734 2.895798 30.006575 4.443708
2004-03-04 07:43:47 51°14.443 2°54.056 4.590198 2.882432 29.854611 4.511127
2004-03-04 07:43:51 51°14.443 2°54.052 4.586472 2.900114 30.054317 4.578546
2004-03-04 07:43:56 51°14.443 2°54.048 4.590403 2.89443 29.988546 4.477418
2004-03-04 07:44:02 51°14.442 2°54.042 4.590403 2.89443 29.988546 4.477418
2004-03-04 07:44:06 51°14.442 2°54.039 4.589177 2.898009 30.029453 4.409999
2004-03-04 07:44:11 51°14.442 2°54.035 4.591066 2.905797 30.117712 4.578546
2004-03-04 07:44:16 51°14.442 2°54.031 4.59127 2.899377 30.045096 4.443708
2004-03-04 07:44:22 51°14.441 2°54.026 4.590249 2.875381 29.769323 4.443708
2004-03-04 07:44:27 51°14.441 2°54.021 4.588259 2.90064 30.059536 4.409999
2004-03-04 07:44:31 51°14.441 2°54.018 4.588259 2.90064 30.059536 4.409999
2004-03-04 07:44:36 51°14.44 2°54.014 4.587289 2.898009 30.028656 4.34258
2004-03-04 07:44:42 51°14.44 2°54.01 4.58979 2.900535 30.057535 4.376289
2004-03-04 07:44:46 51°14.44 2°54.007 4.586574 2.899061 30.038297 4.443708
2004-03-04 07:44:52 51°14.439 2°54.002 4.584073 2.904113 30.099252 4.443708
2004-03-04 07:44:56 51°14.439 2°53.999 4.584022 2.901482 30.07076 4.207742
2004-03-04 07:45:00 51°14.439 2°53.996 4.584022 2.901482 30.07076 4.207742
2004-03-04 07:45:06 51°14.438 2°53.992 4.583052 2.913691 30.210413 4.409999
2004-03-04 07:45:11 51°14.438 2°53.987 4.581571 2.897167 30.023014 4.409999
2004-03-04 07:45:16 51°14.436 2°53.981 4.578968 2.895272 30.004541 4.376289
2004-03-04 07:45:22 51°14.434 2°53.972 4.579019 2.912323 30.200369 4.34258
2004-03-04 07:45:27 51°14.432 2°53.964 4.577334 2.899061 30.050258 4.511127
2004-03-04 07:45:31 51°14.429 2°53.956 4.577334 2.899061 30.050258 4.511127
2004-03-04 07:45:36 51°14.425 2°53.945 4.5757 2.916322 30.24855 4.612255
2004-03-04 07:45:42 51°14.419 2°53.93 4.577589 2.916112 30.246944 4.409999
2004-03-04 07:45:46 51°14.415 2°53.919 4.576977 2.917585 30.265418 4.477418
2004-03-04 07:45:51 51°14.408 2°53.904 4.577793 2.902008 30.089555 4.511127
2004-03-04 07:45:56 51°14.401 2°53.886 4.577079 2.910007 30.181084 4.477418
2004-03-04 07:46:00 51°14.394 2°53.871 4.577079 2.910007 30.181084 4.477418
2004-03-04 07:46:07 51°14.382 2°53.843 4.575649 2.916848 30.260198 4.34258
2004-03-04 07:46:11 51°14.374 2°53.825 4.57473 2.914743 30.239311 4.308871
2004-03-04 07:46:16 51°14.364 2°53.802 4.575241 2.914954 30.238508 4.174033
2004-03-04 07:46:22 51°14.352 2°53.774 4.572024 2.916112 30.253369 4.308871
2004-03-04 07:46:26 51°14.345 2°53.754 4.577283 2.885064 29.89737 4.409999
2004-03-04 07:46:30 51°14.337 2°53.735 4.577283 2.885064 29.89737 4.409999
2004-03-04 07:46:36 51°14.324 2°53.705 4.566254 2.905902 30.137311 4.443708
2004-03-04 07:46:40 51°14.316 2°53.685 4.567429 2.901587 30.087935 4.308871
2004-03-04 07:46:46 51°14.304 2°53.655 4.567939 2.901903 30.093945 4.207742
2004-03-04 07:46:51 51°14.293 2°53.629 4.562577 2.861595 29.6316 4.275161
2004-03-04 07:46:56 51°14.283 2°53.603 4.563956 2.888221 29.938236 4.241452
2004-03-04 07:47:02 51°14.271 2°53.571 4.563956 2.888221 29.938236 4.241452
2004-03-04 07:47:06 51°14.262 2°53.55 4.565131 2.899482 30.07024 4.34258
2004-03-04 07:47:12 51°14.25 2°53.519 4.565182 2.920638 30.313242 4.241452
2004-03-04 07:47:16 51°14.242 2°53.498 4.562322 2.918848 30.293552 4.409999
2004-03-04 07:47:20 51°14.234 2°53.476 4.558134 2.919901 30.308828 4.106614
2004-03-04 07:47:26 51°14.22 2°53.445 4.557419 2.921164 30.323298 4.376289
2004-03-04 07:47:31 51°14.21 2°53.419 4.557419 2.921164 30.323298 4.376289
2004-03-04 07:47:36 51°14.2 2°53.392 4.55793 2.913165 30.231673 4.207742
2004-03-04 07:47:40 51°14.192 2°53.37 4.555428 2.925584 30.375563 4.544836
2004-03-04 07:47:47 51°14.177 2°53.334 4.553793 2.92769 30.402111 4.409999
2004-03-04 07:47:52 51°14.166 2°53.307 4.548737 2.930531 30.436303 4.34258
2004-03-04 07:47:56 51°14.157 2°53.286 4.550678 2.927479 30.402929 4.376289
2004-03-04 07:48:01 51°14.146 2°53.26 4.550678 2.927479 30.402929 4.376289
2004-03-04 07:48:06 51°14.135 2°53.234 4.550116 2.928426 30.416213 4.174033
2004-03-04 07:48:10 51°14.127 2°53.212 4.550065 2.922111 30.344631 4.443708
2004-03-04 07:48:16 51°14.114 2°53.181 4.549656 2.898956 30.081798 4.241452
2004-03-04 07:48:22 51°14.101 2°53.149 4.547766 2.926532 30.397726 4.275161
2004-03-04 07:48:26 51°14.092 2°53.128 4.545059 2.920638 30.330968 4.443708
2004-03-04 07:48:31 51°14.082 2°53.102 4.545059 2.920638 30.330968 4.443708
2004-03-04 07:48:36 51°14.071 2°53.075 4.543067 2.915796 30.276287 4.275161
2004-03-04 07:48:40 51°14.062 2°53.054 4.544957 2.915165 30.269051 4.207742
2004-03-04 07:48:47 51°14.047 2°53.016 4.541075 2.918217 30.306446 4.241452
2004-03-04 07:48:51 51°14.038 2°52.995 4.543833 2.908113 30.192273 3.971777
2004-03-04 07:48:56 51°14.027 2°52.969 4.540155 2.916428 30.287549 4.072905
2004-03-04 07:49:02 51°14.014 2°52.937 4.540155 2.916428 30.287549 4.072905
2004-03-04 07:49:06 51°14.006 2°52.916 4.539491 2.910428 30.220408 4.072905
2004-03-04 07:49:10 51°13.997 2°52.894 4.535659 2.914954 30.273076 4.106614
2004-03-04 07:49:16 51°13.984 2°52.862 4.535608 2.911797 30.237695 4.106614
2004-03-04 07:49:20 51°13.976 2°52.841 4.537192 2.912954 30.250962 3.836939
2004-03-04 07:49:27 51°13.961 2°52.803 4.536273 2.922006 30.356334 3.904358
2004-03-04 07:49:32 51°13.95 2°52.777 4.536273 2.922006 30.356334 3.904358
2004-03-04 07:49:36 51°13.941 2°52.755 4.534689 2.915796 30.287558 3.702101
2004-03-04 07:49:42 51°13.929 2°52.723 4.533309 2.905166 30.168138 3.80323
2004-03-04 07:49:46 51°13.92 2°52.702 4.534127 2.899483 30.103024 3.702101
2004-03-04 07:49:51 51°13.91 2°52.675 4.533309 2.907903 30.200299 3.600973
2004-03-04 07:49:56 51°13.899 2°52.649 4.531777 2.917796 30.314514 3.76952
2004-03-04 07:50:02 51°13.886 2°52.617 4.531777 2.917796 30.314514 3.76952
2004-03-04 07:50:06 51°13.878 2°52.595 4.533156 2.900535 30.117484 3.735811
2004-03-04 07:50:11 51°13.867 2°52.568 4.534025 2.905061 30.169339 3.80323
2004-03-04 07:50:16 51°13.857 2°52.541 4.533565 2.917165 30.30808 3.76952
2004-03-04 07:50:20 51°13.849 2°52.52 4.532594 2.91327 30.264237 3.735811
2004-03-04 07:50:26 51°13.836 2°52.487 4.530397 2.915481 30.290383 3.499845
2004-03-04 07:50:30 51°13.828 2°52.466 4.530397 2.915481 30.290383 3.499845
2004-03-04 07:50:36 51°13.815 2°52.433 4.533054 2.920217 30.344694 3.634683
2004-03-04 07:50:42 51°13.803 2°52.401 4.53239 2.918849 30.328196 3.567264
2004-03-04 07:50:46 51°13.794 2°52.38 4.528966 2.919164 30.332624 3.567264
2004-03-04 07:50:51 51°13.784 2°52.353 4.532185 2.91927 30.335444 3.567264
2004-03-04 07:50:56 51°13.773 2°52.326 4.533565 2.910008 30.229247 3.735811
2004-03-04 07:51:02 51°13.76 2°52.294 4.533565 2.910008 30.229247 3.735811
2004-03-04 07:51:06 51°13.752 2°52.272 4.530908 2.921796 30.364416 3.668392
2004-03-04 07:51:12 51°13.739 2°52.24 4.530704 2.918112 30.322974 3.600973
2004-03-04 07:51:16 51°13.73 2°52.218 4.530346 2.913797 30.273491 3.702101
2004-03-04 07:51:22 51°13.718 2°52.186 4.529733 2.917375 30.314524 3.567264
2004-03-04 07:51:26 51°13.709 2°52.164 4.526616 2.920427 30.350337 3.702101
2004-03-04 07:51:30 51°13.701 2°52.143 4.526616 2.920427 30.350337 3.702101
2004-03-04 07:51:36 51°13.688 2°52.11 4.534025 2.912218 30.256195 3.567264
2004-03-04 07:51:42 51°13.675 2°52.078 4.528864 2.914218 30.279929 3.567264
2004-03-04 07:51:46 51°13.667 2°52.056 4.526207 2.916112 30.300847 3.735811
2004-03-04 07:51:52 51°13.655 2°52.024 4.527025 2.91506 30.289584 3.466136
2004-03-04 07:51:56 51°13.646 2°52.002 4.527025 2.909376 30.22442 3.499845
2004-03-04 07:52:00 51°13.637 2°51.981 4.527025 2.909376 30.22442 3.499845
2004-03-04 07:52:06 51°13.625 2°51.948 4.525134 2.905271 30.177369 3.499845
2004-03-04 07:52:11 51°13.614 2°51.921 4.523959 2.904745 30.172943 3.466136
2004-03-04 07:52:16 51°13.603 2°51.894 4.523295 2.912534 30.26384 3.735811
2004-03-04 07:52:22 51°13.59 2°51.862 4.521404 2.910429 30.240508 3.398717
2004-03-04 07:52:26 51°13.582 2°51.84 4.522988 2.915691 30.301662 3.600973
2004-03-04 07:52:31 51°13.571 2°51.813 4.522988 2.915691 30.301662 3.600973
2004-03-04 07:52:36 51°13.561 2°51.786 4.523857 2.905587 30.186609 3.600973
2004-03-04 07:52:42 51°13.548 2°51.754 4.5282 2.912007 30.260221 3.533554
2004-03-04 07:52:46 51°13.54 2°51.732 4.524674 2.902114 30.1484 3.702101
2004-03-04 07:52:51 51°13.53 2°51.705 4.522988 2.904956 30.182582 3.567264
2004-03-04 07:52:56 51°13.519 2°51.678 4.52309 2.911797 30.258612 3.600973
2004-03-04 07:53:02 51°13.507 2°51.645 4.52309 2.911797 30.258612 3.600973
2004-03-04 07:53:07 51°13.496 2°51.618 4.52585 2.904535 30.175347 3.634683
2004-03-04 07:53:11 51°13.488 2°51.596 4.522017 2.919691 30.348345 3.466136
2004-03-04 07:53:16 51°13.477 2°51.569 4.523141 2.91106 30.250163 3.533554
2004-03-04 07:53:22 51°13.465 2°51.536 4.519207 2.910534 30.245738 3.533554
2004-03-04 07:53:26 51°13.456 2°51.515 4.518645 2.903798 30.171718 3.567264
2004-03-04 07:53:32 51°13.444 2°51.482 4.518645 2.903798 30.171718 3.567264
2004-03-04 07:53:36 51°13.435 2°51.46 4.524163 2.905061 30.184592 3.668392
2004-03-04 07:53:41 51°13.425 2°51.433 4.516038 2.916218 30.31173 3.567264
2004-03-04 07:53:46 51°13.414 2°51.406 4.51752 2.896325 30.083659 3.466136
2004-03-04 07:53:50 51°13.406 2°51.385 4.513023 2.910534 30.248958 3.466136
2004-03-04 07:53:56 51°13.393 2°51.353 4.516907 2.911481 30.259017 3.365007
2004-03-04 07:54:02 51°13.381 2°51.32 4.516907 2.911481 30.259017 3.365007
2004-03-04 07:54:07 51°13.37 2°51.293 4.516089 2.915165 30.303689 3.432426
2004-03-04 07:54:11 51°13.362 2°51.271 4.510212 2.912744 30.277531 3.600973
2004-03-04 07:54:16 51°13.351 2°51.244 4.511132 2.917586 30.333883 3.533554
2004-03-04 07:54:22 51°13.339 2°51.212 4.511439 2.91106 30.25902 3.365007
2004-03-04 07:54:26 51°13.33 2°51.19 4.512154 2.91527 30.308123 3.600973
2004-03-04 07:54:31 51°13.32 2°51.163 4.512154 2.91527 30.308123 3.600973
2004-03-04 07:54:36 51°13.309 2°51.136 4.511081 2.921164 30.378182 3.634683
2004-03-04 07:54:40 51°13.301 2°51.114 4.513739 2.91506 30.308934 3.668392
2004-03-04 07:54:47 51°13.286 2°51.076 4.509599 2.912323 30.278343 3.634683
2004-03-04 07:54:52 51°13.275 2°51.049 4.511132 2.900009 30.136301 3.466136
2004-03-04 07:54:56 51°13.267 2°51.027 4.511797 2.915481 30.314572 3.533554
2004-03-04 07:55:02 51°13.254 2°50.995 4.511797 2.915481 30.314572 3.533554
2004-03-04 07:55:06 51°13.246 2°50.973 4.514607 2.912113 30.275122 3.499845
2004-03-04 07:55:10 51°13.238 2°50.952 4.508986 2.917691 30.339936 3.533554
2004-03-04 07:55:16 51°13.225 2°50.92 4.507554 2.92548 30.430147 3.533554
2004-03-04 07:55:22 51°13.212 2°50.887 4.510417 2.922322 30.394707 3.533554
2004-03-04 07:55:26 51°13.204 2°50.865 4.511643 2.914428 30.304108 3.499845
2004-03-04 07:55:31 51°13.193 2°50.839 4.511643 2.914428 30.304108 3.499845
2004-03-04 07:55:36 51°13.183 2°50.811 4.508117 2.915902 30.321825 3.702101
2004-03-04 07:55:42 51°13.17 2°50.779 4.509497 2.91285 30.287605 3.904358
2004-03-04 07:55:46 51°13.162 2°50.757 4.51057 2.912639 30.284384 3.466136
2004-03-04 07:55:51 51°13.151 2°50.73 4.514301 2.923164 30.405183 3.365007
2004-03-04 07:55:56 51°13.141 2°50.703 4.511797 2.920849 30.378602 3.499845
2004-03-04 07:56:02 51°13.128 2°50.67 4.511797 2.920849 30.378602 3.499845
2004-03-04 07:56:06 51°13.119 2°50.649 4.51103 2.924533 30.420892 3.398717
2004-03-04 07:56:11 51°13.109 2°50.622 4.509088 2.92348 30.408808 3.263879
2004-03-04 07:56:16 51°13.098 2°50.595 4.509905 2.87475 29.84766 3.263879
2004-03-04 07:56:22 51°13.086 2°50.562 4.506174 2.904009 30.182163 3.365007
2004-03-04 07:56:27 51°13.075 2°50.535 4.509752 2.91948 30.362896 3.634683
2004-03-04 07:56:31 51°13.067 2°50.513 4.509752 2.91948 30.362896 3.634683
2004-03-04 07:56:36 51°13.056 2°50.486 4.507094 2.919586 30.364104 3.567264
2004-03-04 07:56:40 51°13.048 2°50.464 4.507401 2.925796 30.435393 3.398717
2004-03-04 07:56:47 51°13.033 2°50.426 4.50459 2.920428 30.375386 3.398717
2004-03-04 07:56:51 51°13.025 2°50.404 4.505714 2.916954 30.336326 3.533554
2004-03-04 07:56:56 51°13.015 2°50.377 4.505561 2.906324 30.214349 3.466136
2004-03-04 07:57:02 51°13.002 2°50.345 4.505561 2.906324 30.214349 3.466136
2004-03-04 07:57:06 51°12.994 2°50.323 4.50643 2.926217 30.442658 3.432426
2004-03-04 07:57:11 51°12.983 2°50.295 4.507146 2.920322 30.376604 3.466136
2004-03-04 07:57:16 51°12.973 2°50.268 4.504232 2.932111 30.511975 3.398717
2004-03-04 07:57:22 51°12.96 2°50.236 4.507197 2.900851 30.153179 3.432426
2004-03-04 07:57:26 51°12.952 2°50.214 4.509088 2.920217 30.374587 3.466136
2004-03-04 07:57:31 51°12.941 2°50.187 4.509088 2.920217 30.374587 3.466136
2004-03-04 07:57:36 51°12.931 2°50.16 4.506072 2.90043 30.148351 3.331298
2004-03-04 07:57:42 51°12.918 2°50.127 4.508117 2.924217 30.421316 3.365007
2004-03-04 07:57:46 51°12.91 2°50.105 4.509752 2.920743 30.381438 3.432426
2004-03-04 07:57:50 51°12.902 2°50.083 4.505919 2.900851 30.151574 3.331298
2004-03-04 07:57:56 51°12.889 2°50.051 4.50827 2.918744 30.357672 3.432426
2004-03-04 07:58:00 51°12.881 2°50.029 4.50827 2.918744 30.357672 3.432426
2004-03-04 07:58:07 51°12.866 2°49.991 4.506839 2.916323 30.329886 3.432426
2004-03-04 07:58:12 51°12.856 2°49.964 4.509854 2.917796 30.346799 3.162751
2004-03-04 07:58:16 51°12.847 2°49.942 4.509701 2.92127 30.38667 3.331298
2004-03-04 07:58:20 51°12.839 2°49.921 4.507401 2.919796 30.369754 3.19646
2004-03-04 07:58:26 51°12.826 2°49.888 4.510877 2.926638 30.449114 3.19646
2004-03-04 07:58:30 51°12.818 2°49.866 4.510877 2.926638 30.449114 3.19646
2004-03-04 07:58:36 51°12.806 2°49.834 4.509701 2.926532 30.447095 3.263879
2004-03-04 07:58:42 51°12.793 2°49.801 4.507401 2.931585 30.505117 3.297589
2004-03-04 07:58:47 51°12.783 2°49.774 4.512614 2.914639 30.310558 3.297589
2004-03-04 07:58:52 51°12.772 2°49.747 4.512001 2.929164 30.476502 3.432426
2004-03-04 07:58:56 51°12.764 2°49.725 4.510314 2.935058 30.544203 3.331298
2004-03-04 07:59:00 51°12.755 2°49.703 4.510314 2.935058 30.544203 3.331298
2004-03-04 07:59:06 51°12.743 2°49.671 4.512716 2.918112 30.350423 3.23017
2004-03-04 07:59:10 51°12.735 2°49.649 4.509343 2.925585 30.434596 3.331298
2004-03-04 07:59:16 51°12.722 2°49.616 4.512921 2.928848 30.471253 3.297589
2004-03-04 07:59:22 51°12.71 2°49.584 4.509599 2.935479 30.548227 3.331298
2004-03-04 07:59:26 51°12.702 2°49.562 4.510825 2.92327 30.407201 3.263879
2004-03-04 07:59:30 51°12.693 2°49.54 4.510825 2.92327 30.407201 3.263879
2004-03-04 07:59:36 51°12.681 2°49.508 4.513381 2.918954 30.357664 3.297589
2004-03-04 07:59:42 51°12.668 2°49.475 4.511797 2.930637 30.491801 3.23017
2004-03-04 07:59:46 51°12.66 2°49.454 4.508014 2.925164 30.428952 3.263879
2004-03-04 07:59:51 51°12.649 2°49.427 4.508679 2.924112 30.417678 3.398717
2004-03-04 07:59:56 51°12.639 2°49.4 4.507912 2.932216 30.510747 3.19646
2004-03-04 08:00:02 51°12.626 2°49.368 4.507912 2.932216 30.510747 3.19646
2004-03-04 08:00:06 51°12.618 2°49.346 4.50689 2.926638 30.446682 3.331298
2004-03-04 08:00:11 51°12.607 2°49.319 4.506277 2.930006 30.48536 3.263879
2004-03-04 08:00:16 51°12.597 2°49.292 4.507248 2.935268 30.546622 3.19646
2004-03-04 08:00:20 51°12.589 2°49.27 4.507146 2.916849 30.336734 3.162751
2004-03-04 08:00:26 51°12.576 2°49.238 4.50551 2.932321 30.51358 3.19646
2004-03-04 08:00:32 51°12.564 2°49.206 4.50551 2.932321 30.51358 3.19646
2004-03-04 08:00:36 51°12.556 2°49.184 4.504897 2.931585 30.506742 3.061623
2004-03-04 08:00:42 51°12.543 2°49.152 4.50597 2.921059 30.385872 3.162751
2004-03-04 08:00:46 51°12.535 2°49.131 4.505663 2.930953 30.5003 3.129042
2004-03-04 08:00:51 51°12.525 2°49.104 4.506072 2.92748 30.460406 3.331298
2004-03-04 08:00:56 51°12.515 2°49.077 4.505254 2.922533 30.403599 3.027913
2004-03-04 08:01:02 51°12.502 2°49.045 4.505254 2.922533 30.403599 3.027913
2004-03-04 08:01:07 51°12.492 2°49.018 4.504948 2.934847 30.545852 3.095332
2004-03-04 08:01:10 51°12.486 2°49.002 4.503619 2.924322 30.424955 3.027913
2004-03-04 08:01:16 51°12.473 2°48.97 4.504283 2.92348 30.414476 3.162751
2004-03-04 08:01:22 51°12.46 2°48.938 4.504999 2.923585 30.416494 3.263879
2004-03-04 08:01:26 51°12.452 2°48.917 4.504794 2.901062 30.158806 3.297589
2004-03-04 08:01:31 51°12.442 2°48.89 4.504794 2.901062 30.158806 3.297589
2004-03-04 08:01:36 51°12.432 2°48.863 4.504539 2.928532 30.473306 3.129042
2004-03-04 08:01:42 51°12.419 2°48.831 4.50735 2.928427 30.47372 3.297589
2004-03-04 08:01:46 51°12.411 2°48.809 4.506021 2.922007 30.399985 3.365007
2004-03-04 08:01:50 51°12.403 2°48.788 4.509701 2.928743 30.477347 3.466136
2004-03-04 08:01:56 51°12.391 2°48.755 4.506532 2.92948 30.48581 3.499845
2004-03-04 08:02:02 51°12.378 2°48.723 4.506532 2.92948 30.48581 3.499845
2004-03-04 08:02:06 51°12.37 2°48.702 4.50551 2.933269 30.5269 3.331298
2004-03-04 08:02:11 51°12.36 2°48.675 4.507452 2.927374 30.459197 3.297589
2004-03-04 08:02:16 51°12.349 2°48.648 4.506123 2.910955 30.271509 3.365007
2004-03-04 08:02:20 51°12.341 2°48.627 4.510161 2.932427 30.517227 3.263879
2004-03-04 08:02:26 51°12.328 2°48.595 4.509803 2.926532 30.451149 3.297589
2004-03-04 08:02:31 51°12.318 2°48.568 4.509803 2.926532 30.451149 3.297589
2004-03-04 08:02:36 51°12.307 2°48.542 4.511439 2.930427 30.495067 3.466136
2004-03-04 08:02:41 51°12.297 2°48.515 4.510774 2.929164 30.480559 3.567264
2004-03-04 08:02:46 51°12.286 2°48.488 4.514045 2.92748 30.459595 3.533554
2004-03-04 08:02:52 51°12.274 2°48.456 4.506634 2.928006 30.465639 3.634683
2004-03-04 08:02:56 51°12.266 2°48.435 4.510365 2.910324 30.262651 3.297589
2004-03-04 08:03:02 51°12.253 2°48.403 4.510365 2.910324 30.262651 3.297589
2004-03-04 08:03:06 51°12.245 2°48.381 4.50919 2.92569 30.438236 3.499845
2004-03-04 08:03:11 51°12.235 2°48.354 4.507554 2.915586 30.32143 3.735811
2004-03-04 08:03:14 51°12.228 2°48.339 4.507197 2.920112 30.373379 3.533554
2004-03-04 08:03:22 51°12.212 2°48.296 4.510979 2.933795 30.532133 3.600973
2004-03-04 08:03:26 51°12.203 2°48.274 4.509088 2.9299 30.487398 3.567264
2004-03-04 08:03:32 51°12.191 2°48.242 4.509088 2.9299 30.487398 3.567264
2004-03-04 08:03:36 51°12.183 2°48.221 4.514556 2.929164 30.478936 3.668392
2004-03-04 08:03:42 51°12.171 2°48.189 4.511388 2.925901 30.442275 3.80323
2004-03-04 08:03:46 51°12.162 2°48.167 4.508014 2.9339 30.533342 3.600973
2004-03-04 08:03:51 51°12.152 2°48.14 4.510417 2.919375 30.366538 3.634683
2004-03-04 08:03:56 51°12.142 2°48.113 4.506123 2.888537 30.011194 3.668392
2004-03-04 08:04:02 51°12.129 2°48.081 4.506123 2.888537 30.011194 3.668392
2004-03-04 08:04:07 51°12.119 2°48.054 4.510365 2.933163 30.523253 3.870648
2004-03-04 08:04:11 51°12.111 2°48.033 4.508526 2.927059 30.453949 3.668392
2004-03-04 08:04:16 51°12.1 2°48.006 4.50597 2.9319 30.509557 3.702101
2004-03-04 08:04:20 51°12.092 2°47.985 4.506634 2.933584 30.531341 3.702101
2004-03-04 08:04:26 51°12.08 2°47.953 4.502903 2.933374 30.528922 3.735811
2004-03-04 08:04:31 51°12.069 2°47.926 4.502903 2.933374 30.528922 3.735811
2004-03-04 08:04:36 51°12.059 2°47.899 4.504743 2.936216 30.561573 3.668392
2004-03-04 08:04:42 51°12.046 2°47.867 4.505663 2.932953 30.524898 3.634683
2004-03-04 08:04:46 51°12.038 2°47.845 4.503312 2.901483 30.164438 3.76952
2004-03-04 08:04:51 51°12.027 2°47.819 4.505817 2.916007 30.332723 3.76952
2004-03-04 08:04:56 51°12.017 2°47.792 4.504181 2.944005 30.652717 3.668392
2004-03-04 08:05:02 51°12.004 2°47.76 4.504181 2.944005 30.652717 3.668392
2004-03-04 08:05:06 51°11.996 2°47.738 4.504283 2.932111 30.51685 3.702101
2004-03-04 08:05:11 51°11.985 2°47.712 4.503823 2.929795 30.490249 3.668392
2004-03-04 08:05:16 51°11.975 2°47.685 4.504181 2.942426 30.635385 3.668392
2004-03-04 08:05:20 51°11.966 2°47.664 4.503312 2.93369 30.535803 3.600973
2004-03-04 08:05:26 51°11.954 2°47.632 4.501625 2.938531 30.590625 3.634683
2004-03-04 08:05:31 51°11.943 2°47.605 4.501625 2.938531 30.590625 3.634683
2004-03-04 08:05:36 51°11.932 2°47.579 4.503414 2.914849 30.319432 3.499845
2004-03-04 08:05:42 51°11.92 2°47.547 4.501625 2.913481 30.304534 3.466136
2004-03-04 08:05:46 51°11.911 2°47.526 4.502852 2.934953 30.550315 3.432426
2004-03-04 08:05:52 51°11.898 2°47.494 4.501932 2.945163 30.669294 3.466136
2004-03-04 08:05:56 51°11.89 2°47.473 4.505408 2.943794 30.653563 3.398717
2004-03-04 08:06:00 51°11.882 2°47.452 4.505408 2.943794 30.653563 3.398717
2004-03-04 08:06:06 51°11.869 2°47.419 4.503108 2.9359 30.562828 3.432426
2004-03-04 08:06:10 51°11.861 2°47.398 4.499632 2.940952 30.620079 3.365007
2004-03-04 08:06:16 51°11.848 2°47.366 4.501472 2.944636 30.663243 3.331298
2004-03-04 08:06:22 51°11.836 2°47.334 4.499887 2.942215 30.635413 3.499845
2004-03-04 08:06:26 51°11.828 2°47.312 4.500347 2.935584 30.560014 3.365007
2004-03-04 08:06:31 51°11.817 2°47.286 4.500347 2.935584 30.560014 3.365007
2004-03-04 08:06:36 51°11.806 2°47.259 4.498456 2.938426 30.594304 3.297589
2004-03-04 08:06:40 51°11.798 2°47.238 4.501063 2.952636 30.756867 3.23017
2004-03-04 08:06:47 51°11.783 2°47.2 4.49774 2.944321 30.661247 3.365007
2004-03-04 08:06:51 51°11.775 2°47.179 4.499376 2.949268 30.718948 3.162751
2004-03-04 08:06:56 51°11.765 2°47.152 4.501063 2.945057 30.670535 3.23017
2004-03-04 08:07:00 51°11.756 2°47.131 4.501063 2.945057 30.670535 3.23017
2004-03-04 08:07:06 51°11.744 2°47.098 4.499683 2.955688 30.793619 3.297589
2004-03-04 08:07:11 51°11.733 2°47.072 4.497638 2.941584 30.632233 3.23017
2004-03-04 08:07:16 51°11.723 2°47.045 4.495695 2.952846 30.761747 3.027913
2004-03-04 08:07:21 51°11.713 2°47.018 4.49728 2.94632 30.685058 3.19646
2004-03-04 08:07:26 51°11.703 2°46.991 4.497127 2.943794 30.657646 2.893076
2004-03-04 08:07:31 51°11.692 2°46.964 4.497127 2.943794 30.657646 2.893076
2004-03-04 08:07:36 51°11.682 2°46.938 4.499172 2.948741 30.715351 2.926785
2004-03-04 08:07:42 51°11.669 2°46.906 4.499274 2.957162 30.812214 3.23017
2004-03-04 08:07:46 51°11.661 2°46.885 4.499938 2.939163 30.606034 3.23017
2004-03-04 08:07:51 51°11.65 2°46.858 4.500296 2.945689 30.67943 3.095332
2004-03-04 08:07:56 51°11.64 2°46.832 4.501421 2.949057 30.718164 3.027913
2004-03-04 08:08:01 51°11.629 2°46.805 4.501421 2.949057 30.718164 3.027913
2004-03-04 08:08:07 51°11.616 2°46.774 4.499223 2.948531 30.711293 3.027913
2004-03-04 08:08:11 51°11.608 2°46.752 4.50229 2.948847 30.714925 3.027913
2004-03-04 08:08:16 51°11.598 2°46.726 4.502852 2.936953 30.578997 3.027913
2004-03-04 08:08:22 51°11.586 2°46.693 4.502443 2.924743 30.437084 2.994204
2004-03-04 08:08:26 51°11.577 2°46.672 4.503312 2.955057 30.785534 3.027913
2004-03-04 08:08:31 51°11.567 2°46.645 4.503312 2.955057 30.785534 3.027913
2004-03-04 08:08:36 51°11.557 2°46.619 4.501779 2.922849 30.413704 3.095332
2004-03-04 08:08:42 51°11.544 2°46.587 4.504385 2.955162 30.784285 3.061623
2004-03-04 08:08:46 51°11.536 2°46.566 4.503772 2.958741 30.827096 3.331298
2004-03-04 08:08:51 51°11.526 2°46.539 4.502494 2.943794 30.655196 3.297589
2004-03-04 08:08:56 51°11.515 2°46.513 4.504897 2.960109 30.842018 2.893076
2004-03-04 08:09:00 51°11.507 2°46.491 4.504897 2.960109 30.842018 2.893076
2004-03-04 08:09:06 51°11.495 2°46.459 4.50689 2.957688 30.814165 2.994204
2004-03-04 08:09:12 51°11.483 2°46.427 4.506941 2.950846 30.736287 3.095332
2004-03-04 08:09:16 51°11.475 2°46.406 4.508781 2.943899 30.656406 3.129042
2004-03-04 08:09:22 51°11.462 2°46.374 4.504743 2.959899 30.839596 3.061623
2004-03-04 08:09:26 51°11.454 2°46.353 4.506123 2.955162 30.782645 2.960494
2004-03-04 08:09:31 51°11.444 2°46.326 4.506123 2.955162 30.782645 2.960494
2004-03-04 08:09:36 51°11.434 2°46.3 4.504794 2.957372 30.80725 3.162751
2004-03-04 08:09:42 51°11.422 2°46.268 4.505152 2.948004 30.699517 3.095332
2004-03-04 08:09:46 51°11.413 2°46.247 4.505305 2.940952 30.618448 2.724529
2004-03-04 08:09:51 51°11.403 2°46.22 4.507554 2.957372 30.80725 2.893076
2004-03-04 08:09:56 51°11.393 2°46.194 4.50551 2.951478 30.741094 2.791947
2004-03-04 08:10:00 51°11.385 2°46.173 4.50551 2.951478 30.741094 2.791947
2004-03-04 08:10:06 51°11.373 2°46.14 4.506941 2.964109 30.885575 3.162751
2004-03-04 08:10:12 51°11.362 2°46.108 4.507043 2.956425 30.797173 3.061623
2004-03-04 08:10:16 51°11.354 2°46.087 4.510263 2.957162 30.804828 2.960494
2004-03-04 08:10:20 51°11.347 2°46.064 4.508168 2.950636 30.730592 2.994204
2004-03-04 08:10:27 51°11.335 2°46.025 4.509037 2.954741 30.776983 2.893076
2004-03-04 08:10:30 51°11.331 2°46.008 4.509037 2.954741 30.776983 2.893076
2004-03-04 08:10:36 51°11.322 2°45.974 4.512001 2.956004 30.79069 3.095332
2004-03-04 08:10:42 51°11.313 2°45.939 4.509854 2.953373 30.759607 3.061623
2004-03-04 08:10:46 51°11.308 2°45.916 4.509752 2.955057 30.775696 3.129042
2004-03-04 08:10:51 51°11.301 2°45.887 4.514199 2.962004 30.858065 2.893076
2004-03-04 08:10:56 51°11.294 2°45.858 4.509957 2.955162 30.777726 2.825657
2004-03-04 08:11:00 51°11.289 2°45.835 4.509957 2.955162 30.777726 2.825657
2004-03-04 08:11:06 51°11.28 2°45.8 4.511183 2.964004 30.878607 2.859366
2004-03-04 08:11:10 51°11.275 2°45.777 4.511234 2.953057 30.752699 2.960494
2004-03-04 08:11:16 51°11.266 2°45.742 4.511439 2.948846 30.703474 2.926785
2004-03-04 08:11:22 51°11.258 2°45.707 4.51103 2.959899 30.830562 2.994204
2004-03-04 08:11:26 51°11.253 2°45.684 4.515936 2.962846 30.866109 2.724529
2004-03-04 08:11:31 51°11.246 2°45.654 4.515936 2.962846 30.866109 2.724529
2004-03-04 08:11:36 51°11.24 2°45.625 4.513687 2.96453 30.886307 2.6234
2004-03-04 08:11:42 51°11.232 2°45.589 4.513125 2.958636 30.817676 2.859366
2004-03-04 08:11:46 51°11.227 2°45.566 4.51752 2.96253 30.859189 2.893076
2004-03-04 08:11:50 51°11.222 2°45.542 4.518236 2.949478 30.710735 2.926785
2004-03-04 08:11:56 51°11.214 2°45.507 4.513739 2.958846 30.818456 3.162751
2004-03-04 08:12:02 51°11.206 2°45.472 4.513739 2.958846 30.818456 3.162751
2004-03-04 08:12:06 51°11.2 2°45.448 4.516498 2.965477 30.893916 2.960494
2004-03-04 08:12:12 51°11.192 2°45.413 4.515323 2.953057 30.750243 2.960494
2004-03-04 08:12:16 51°11.187 2°45.389 4.517674 2.956425 30.788153 2.758238
2004-03-04 08:12:20 51°11.182 2°45.366 4.515323 2.956215 30.787372 2.825657
2004-03-04 08:12:26 51°11.174 2°45.33 4.518185 2.964846 30.885828 2.791947
2004-03-04 08:12:30 51°11.169 2°45.307 4.518185 2.964846 30.885828 2.791947
2004-03-04 08:12:36 51°11.161 2°45.272 4.5189 2.968319 30.924969 2.893076
2004-03-04 08:12:40 51°11.156 2°45.248 4.515323 2.966004 30.898326 2.758238
2004-03-04 08:12:46 51°11.148 2°45.213 4.519667 2.959583 30.824468 2.825657
2004-03-04 08:12:51 51°11.141 2°45.183 4.516038 2.96232 30.855124 2.994204
2004-03-04 08:12:56 51°11.135 2°45.153 4.516703 2.959372 30.820406 2.825657
2004-03-04 08:13:02 51°11.127 2°45.118 4.516703 2.959372 30.820406 2.825657
2004-03-04 08:13:06 51°11.122 2°45.094 4.515118 2.954425 30.764338 3.027913
2004-03-04 08:13:12 51°11.114 2°45.059 4.516243 2.956741 30.789325 2.893076
2004-03-04 08:13:16 51°11.109 2°45.035 4.516294 2.962846 30.859534 2.825657
2004-03-04 08:13:22 51°11.1 2°45 4.517469 2.959688 30.824858 2.825657
2004-03-04 08:13:26 51°11.095 2°44.976 4.516141 2.952425 30.742982 3.061623
2004-03-04 08:13:30 51°11.09 2°44.953 4.516141 2.952425 30.742982 3.061623
2004-03-04 08:13:36 51°11.082 2°44.917 4.516294 2.930637 30.491801 2.758238
2004-03-04 08:13:40 51°11.077 2°44.894 4.51752 2.960425 30.833332 2.758238
2004-03-04 08:13:46 51°11.069 2°44.858 4.515272 2.963162 30.866453 2.960494
2004-03-04 08:13:51 51°11.062 2°44.829 4.514607 2.963583 30.871297 2.859366
2004-03-04 08:13:56 51°11.055 2°44.799 4.515476 2.963267 30.867664 2.893076
2004-03-04 08:14:02 51°11.047 2°44.764 4.515476 2.963267 30.867664 2.893076
2004-03-04 08:14:06 51°11.042 2°44.74 4.516141 2.957478 30.800258 2.758238
2004-03-04 08:14:10 51°11.036 2°44.717 4.517469 2.962951 30.864032 2.690819
2004-03-04 08:14:16 51°11.028 2°44.681 4.515936 2.963267 30.867664 2.758238
2004-03-04 08:14:20 51°11.023 2°44.658 4.518645 2.945478 30.663124 3.095332
2004-03-04 08:14:26 51°11.014 2°44.622 4.516345 2.954846 30.770817 2.926785
2004-03-04 08:14:30 51°11.009 2°44.599 4.516345 2.954846 30.770817 2.926785
2004-03-04 08:14:36 51°11.001 2°44.564 4.518696 2.953478 30.755084 2.893076
2004-03-04 08:14:40 51°10.996 2°44.54 4.516038 2.95632 30.786123 3.061623
2004-03-04 08:14:46 51°10.988 2°44.504 4.518185 2.930953 30.494616 3.027913
2004-03-04 08:14:52 51°10.98 2°44.469 4.517674 2.935584 30.547809 2.960494
2004-03-04 08:14:56 51°10.975 2°44.445 4.517878 2.959688 30.824858 2.65711
2004-03-04 08:15:02 51°10.967 2°44.41 4.517878 2.959688 30.824858 2.65711
2004-03-04 08:15:06 51°10.962 2°44.386 4.52074 2.965372 30.890237 2.893076
2004-03-04 08:15:11 51°10.955 2°44.357 4.518798 2.958951 30.816384 3.19646
2004-03-04 08:15:16 51°10.949 2°44.327 4.5189 2.96053 30.833722 2.893076
2004-03-04 08:15:20 51°10.944 2°44.304 4.515681 2.955793 30.779252 2.859366
2004-03-04 08:15:26 51°10.936 2°44.268 4.516294 2.961372 30.843406 3.095332
2004-03-04 08:15:30 51°10.93 2°44.245 4.516294 2.961372 30.843406 3.095332
2004-03-04 08:15:36 51°10.922 2°44.21 4.515885 2.968846 30.929377 2.994204
2004-03-04 08:15:40 51°10.917 2°44.186 4.521404 2.96032 30.832121 2.926785
2004-03-04 08:15:46 51°10.909 2°44.151 4.522733 2.955793 30.780071 2.859366
2004-03-04 08:15:51 51°10.902 2°44.121 4.519411 2.963898 30.874107 2.758238
2004-03-04 08:15:56 51°10.895 2°44.092 4.517367 2.961688 30.848681 2.926785
2004-03-04 08:16:00 51°10.89 2°44.069 4.517367 2.961688 30.848681 2.926785
2004-03-04 08:16:06 51°10.882 2°44.034 4.516549 2.972425 30.969734 2.825657
2004-03-04 08:16:11 51°10.875 2°44.004 4.518849 2.955267 30.772381 2.791947
2004-03-04 08:16:16 51°10.869 2°43.975 4.517265 2.953373 30.752236 2.859366
2004-03-04 08:16:22 51°10.861 2°43.939 4.517265 2.963583 30.868831 2.791947
2004-03-04 08:16:26 51°10.855 2°43.916 4.518287 2.961056 30.840596 2.960494
2004-03-04 08:16:30 51°10.85 2°43.892 4.518287 2.961056 30.840596 2.960494
2004-03-04 08:16:36 51°10.842 2°43.857 4.5189 2.959162 30.817985 3.061623
2004-03-04 08:16:42 51°10.834 2°43.822 4.517265 2.96874 30.92899 2.926785
2004-03-04 08:16:46 51°10.828 2°43.799 4.516243 2.957793 30.803069 3.061623
2004-03-04 08:16:52 51°10.82 2°43.763 4.516907 2.971267 30.958058 2.960494
2004-03-04 08:16:56 51°10.815 2°43.74 4.517112 2.96053 30.833722 2.994204
2004-03-04 08:17:02 51°10.807 2°43.705 4.517112 2.96053 30.833722 2.994204
2004-03-04 08:17:06 51°10.801 2°43.681 4.516396 2.958741 30.814783 2.791947
2004-03-04 08:17:10 51°10.796 2°43.658 4.519564 2.971898 30.966151 2.859366
2004-03-04 08:17:16 51°10.788 2°43.623 4.519462 2.949688 30.709884 2.926785
2004-03-04 08:17:20 51°10.782 2°43.599 4.516549 2.957688 30.801858 2.893076
2004-03-04 08:17:26 51°10.774 2°43.564 4.519053 2.964214 30.876918 3.027913
2004-03-04 08:17:30 51°10.769 2°43.54 4.519053 2.964214 30.876918 3.027913
2004-03-04 08:17:36 51°10.761 2°43.505 4.515732 2.96453 30.879728 2.926785
2004-03-04 08:17:42 51°10.753 2°43.47 4.517214 2.961372 30.843406 3.061623
2004-03-04 08:17:46 51°10.748 2°43.446 4.519769 2.961267 30.842196 2.960494
2004-03-04 08:17:51 51°10.741 2°43.417 4.519462 2.968214 30.922934 2.926785
2004-03-04 08:17:56 51°10.735 2°43.387 4.51844 2.970004 30.943524 2.994204
2004-03-04 08:18:00 51°10.73 2°43.363 4.51844 2.970004 30.943524 2.994204
2004-03-04 08:18:07 51°10.72 2°43.322 4.516447 2.966846 30.907191 3.027913
2004-03-04 08:18:11 51°10.715 2°43.299 4.516703 2.950004 30.712696 2.994204
2004-03-04 08:18:16 51°10.708 2°43.269 4.517418 2.963372 30.86641 3.061623
2004-03-04 08:18:20 51°10.703 2°43.246 4.519053 2.94811 30.690918 2.758238
2004-03-04 08:18:26 51°10.695 2°43.211 4.518082 2.95632 30.785304 3.027913
2004-03-04 08:18:31 51°10.688 2°43.181 4.518082 2.95632 30.785304 3.027913
2004-03-04 08:18:36 51°10.681 2°43.152 4.517878 2.964635 30.881761 2.926785
2004-03-04 08:18:42 51°10.674 2°43.116 4.518594 2.959899 30.827279 2.791947
2004-03-04 08:18:46 51°10.668 2°43.092 4.518798 2.95853 30.810722 2.758238
2004-03-04 08:18:52 51°10.66 2°43.057 4.51936 2.969056 30.9318 2.859366
2004-03-04 08:18:56 51°10.655 2°43.034 4.521353 2.967162 30.910001 2.960494
2004-03-04 08:19:02 51°10.647 2°42.998 4.521353 2.967162 30.910001 2.960494
2004-03-04 08:19:06 51°10.641 2°42.975 4.519769 2.953899 30.758287 2.859366
2004-03-04 08:19:10 51°10.636 2°42.951 4.51982 2.958741 30.813143 3.027913
2004-03-04 08:19:16 51°10.628 2°42.916 4.519462 2.954425 30.7627 2.926785
2004-03-04 08:19:22 51°10.62 2°42.881 4.519053 2.964004 30.87203 3.027913
2004-03-04 08:19:26 51°10.615 2°42.857 4.521711 2.962004 30.849028 2.926785
2004-03-04 08:19:31 51°10.609 2°42.828 4.521711 2.962004 30.849028 2.926785
2004-03-04 08:19:36 51°10.602 2°42.798 4.522324 2.961372 30.841764 2.825657
2004-03-04 08:19:42 51°10.594 2°42.763 4.523397 2.954951 30.768751 2.893076
2004-03-04 08:19:46 51°10.589 2°42.739 4.521353 2.974846 30.997595 2.825657
2004-03-04 08:19:51 51°10.583 2°42.71 4.521046 2.969161 30.931364 2.994204
2004-03-04 08:19:56 51°10.576 2°42.68 4.52447 2.957793 30.799789 3.027913
2004-03-04 08:20:00 51°10.571 2°42.657 4.52447 2.957793 30.799789 3.027913
2004-03-04 08:20:06 51°10.563 2°42.622 4.523141 2.967372 30.909131 2.994204
2004-03-04 08:20:10 51°10.558 2°42.598 4.522324 2.95832 30.80502 3.129042
2004-03-04 08:20:16 51°10.551 2°42.563 4.525288 2.964109 30.872419 2.994204
2004-03-04 08:20:22 51°10.543 2°42.528 4.523397 2.96653 30.899444 3.061623
2004-03-04 08:20:26 51°10.538 2°42.504 4.524572 2.972635 30.969683 2.960494
2004-03-04 08:20:31 51°10.531 2°42.475 4.524572 2.972635 30.969683 2.960494
2004-03-04 08:20:36 51°10.525 2°42.445 4.522017 2.974951 30.995505 3.027913
2004-03-04 08:20:42 51°10.517 2°42.41 4.522988 2.965267 30.884093 2.926785
2004-03-04 08:20:46 51°10.512 2°42.387 4.526105 2.953162 30.744086 2.926785
2004-03-04 08:20:50 51°10.507 2°42.363 4.524266 2.971372 30.952677 2.960494
2004-03-04 08:20:56 51°10.499 2°42.328 4.524879 2.958741 30.809041 2.859366
2004-03-04 08:21:02 51°10.491 2°42.293 4.524879 2.958741 30.809041 2.859366
2004-03-04 08:21:06 51°10.485 2°42.27 4.526872 2.971056 30.950691 2.791947
2004-03-04 08:21:11 51°10.479 2°42.241 4.527689 2.967898 30.913539 2.994204
2004-03-04 08:21:16 51°10.472 2°42.212 4.529069 2.915165 30.306915 2.960494
2004-03-04 08:21:22 51°10.464 2°42.177 4.527434 2.965898 30.889712 2.893076
2004-03-04 08:21:26 51°10.459 2°42.153 4.529835 2.977582 31.022486 3.061623
2004-03-04 08:21:30 51°10.454 2°42.13 4.529835 2.977582 31.022486 3.061623
2004-03-04 08:21:36 51°10.446 2°42.095 4.529784 2.93811 30.56869 2.926785
2004-03-04 08:21:41 51°10.44 2°42.066 4.53055 2.964109 30.867488 2.960494
2004-03-04 08:21:46 51°10.433 2°42.036 4.52958 2.939163 30.579152 2.893076
2004-03-04 08:21:52 51°10.426 2°42.001 4.532288 2.967372 30.903372 2.893076
2004-03-04 08:21:56 51°10.421 2°41.978 4.533463 2.969898 30.931606 3.19646
2004-03-04 08:22:02 51°10.413 2°41.943 4.533463 2.969898 30.931606 3.19646
2004-03-04 08:22:06 51°10.408 2°41.919 4.530806 2.97474 30.986483 2.758238
2004-03-04 08:22:12 51°10.401 2°41.884 4.535813 2.97274 30.961827 2.926785
2004-03-04 08:22:16 51°10.395 2°41.861 4.533565 2.965056 30.873452 2.960494
2004-03-04 08:22:22 51°10.388 2°41.826 4.533514 2.971582 30.948508 2.724529
2004-03-04 08:22:26 51°10.383 2°41.802 4.535302 2.969793 30.928749 2.926785
2004-03-04 08:22:31 51°10.376 2°41.773 4.535302 2.969793 30.928749 2.926785
2004-03-04 08:22:36 51°10.37 2°41.744 4.533667 2.955267 30.760097 2.893076
2004-03-04 08:22:40 51°10.365 2°41.721 4.53663 2.966109 30.883913 2.758238
2004-03-04 08:22:46 51°10.357 2°41.685 4.536681 2.972214 30.953301 2.724529
2004-03-04 08:22:50 51°10.352 2°41.662 4.539133 2.963056 30.847173 2.893076
2004-03-04 08:22:56 51°10.344 2°41.627 4.535506 2.971267 30.943228 2.724529
2004-03-04 08:23:02 51°10.336 2°41.592 4.535506 2.971267 30.943228 2.724529
2004-03-04 08:23:07 51°10.33 2°41.563 4.536273 2.968846 30.914562 2.825657
2004-03-04 08:23:11 51°10.325 2°41.54 4.536426 2.977793 31.017478 2.960494
2004-03-04 08:23:16 51°10.318 2°41.511 4.536579 2.972109 30.950443 2.791947
2004-03-04 08:23:20 51°10.313 2°41.487 4.538367 2.970003 30.926232 2.724529
2004-03-04 08:23:26 51°10.306 2°41.452 4.536068 2.969267 30.916936 2.690819
2004-03-04 08:23:32 51°10.299 2°41.417 4.536068 2.969267 30.916936 2.690819
2004-03-04 08:23:36 51°10.295 2°41.393 4.536783 2.967898 30.902023 2.758238
2004-03-04 08:23:40 51°10.29 2°41.369 4.536886 2.981898 31.063887 2.724529
2004-03-04 08:23:47 51°10.283 2°41.328 4.538571 2.976424 31.000085 2.825657
2004-03-04 08:23:50 51°10.28 2°41.31 4.537805 2.976635 31.001682 3.129042
2004-03-04 08:23:56 51°10.273 2°41.274 4.539491 2.965793 30.877816 2.6234
2004-03-04 08:24:02 51°10.266 2°41.239 4.539491 2.965793 30.877816 2.6234
2004-03-04 08:24:06 51°10.262 2°41.215 4.538061 2.96453 30.862473 2.65711
2004-03-04 08:24:12 51°10.255 2°41.18 4.539695 2.957162 30.776959 2.724529
2004-03-04 08:24:16 51°10.251 2°41.156 4.539542 2.932321 30.492471 2.791947
2004-03-04 08:24:20 51°10.246 2°41.133 4.542556 2.977161 31.007736 2.690819
2004-03-04 08:24:26 51°10.24 2°41.097 4.54225 2.977267 31.008122 2.791947
2004-03-04 08:24:30 51°10.236 2°41.074 4.54225 2.977267 31.008122 2.791947
2004-03-04 08:24:36 51°10.229 2°41.039 4.543424 2.976951 31.004489 2.589691
2004-03-04 08:24:42 51°10.223 2°41.003 4.544089 2.98253 31.067021 2.758238
2004-03-04 08:24:46 51°10.219 2°40.98 4.543833 2.976109 30.992329 2.825657
2004-03-04 08:24:50 51°10.215 2°40.956 4.54603 2.978635 31.021388 2.6234
2004-03-04 08:24:56 51°10.208 2°40.92 4.544293 2.973582 30.962449 2.791947
2004-03-04 08:25:00 51°10.204 2°40.897 4.544293 2.973582 30.962449 2.791947
2004-03-04 08:25:06 51°10.198 2°40.862 4.543424 2.988003 31.128353 2.6234
2004-03-04 08:25:10 51°10.194 2°40.838 4.546847 2.977372 31.006033 2.758238
2004-03-04 08:25:16 51°10.187 2°40.803 4.547204 2.979161 31.024966 2.65711
2004-03-04 08:25:22 51°10.18 2°40.768 4.54654 2.969477 30.912776 2.555982
2004-03-04 08:25:24 51°10.178 2°40.756 4.550065 2.978003 31.011647 2.6234
2004-03-04 08:25:31 51°10.171 2°40.715 4.550065 2.978003 31.011647 2.6234
2004-03-04 08:25:36 51°10.166 2°40.686 4.551495 2.987793 31.122618 2.555982
2004-03-04 08:25:42 51°10.159 2°40.65 4.551086 2.983793 31.076594 2.724529
2004-03-04 08:25:46 51°10.155 2°40.627 4.55221 2.970951 30.928074 2.555982
2004-03-04 08:25:52 51°10.149 2°40.592 4.55461 2.96274 30.832876 2.555982
2004-03-04 08:25:56 51°10.144 2°40.568 4.556756 2.970214 30.917135 3.162751
2004-03-04 08:26:00 51°10.14 2°40.545 4.556756 2.970214 30.917135 3.162751
2004-03-04 08:26:06 51°10.133 2°40.51 4.557726 2.977477 30.999821 2.488563
2004-03-04 08:26:11 51°10.128 2°40.48 4.559156 2.981793 31.047804 2.555982
2004-03-04 08:26:16 51°10.123 2°40.451 4.561403 2.97074 30.919895 2.488563
2004-03-04 08:26:22 51°10.117 2°40.416 4.564314 2.988109 31.117974 2.421144
2004-03-04 08:26:26 51°10.112 2°40.392 4.565029 2.987266 31.107459 2.454853
2004-03-04 08:26:30 51°10.108 2°40.369 4.565029 2.987266 31.107459 2.454853
2004-03-04 08:26:36 51°10.101 2°40.334 4.567275 2.980319 31.025904 2.454853
2004-03-04 08:26:40 51°10.097 2°40.311 4.569011 2.9339 30.491124 2.454853
2004-03-04 08:26:46 51°10.091 2°40.275 4.571156 2.987161 31.100458 2.488563
2004-03-04 08:26:50 51°10.087 2°40.252 4.571922 2.958635 30.770153 2.421144
2004-03-04 08:26:56 51°10.08 2°40.217 4.572892 2.995161 31.189169 2.454853
2004-03-04 08:27:02 51°10.074 2°40.182 4.572892 2.995161 31.189169 2.454853
2004-03-04 08:27:06 51°10.069 2°40.158 4.574526 2.987793 31.10276 2.387435
2004-03-04 08:27:11 51°10.064 2°40.129 4.575649 2.981056 31.024476 2.522272
2004-03-04 08:27:16 51°10.058 2°40.1 4.579223 2.999267 31.233082 2.320016
2004-03-04 08:27:22 51°10.052 2°40.065 4.578457 2.980003 31.009079 2.421144
2004-03-04 08:27:26 51°10.048 2°40.041 4.579836 2.988003 31.101047 2.488563
2004-03-04 08:27:31 51°10.042 2°40.012 4.579836 2.988003 31.101047 2.488563
2004-03-04 08:27:36 51°10.037 2°39.983 4.579784 2.998319 31.218032 2.454853
2004-03-04 08:27:42 51°10.031 2°39.948 4.581265 2.990845 31.130418 2.454853
2004-03-04 08:27:47 51°10.025 2°39.918 4.581673 2.988529 31.102138 2.387435
2004-03-04 08:27:51 51°10.021 2°39.895 4.583205 2.985898 31.070234 2.286306
2004-03-04 08:27:56 51°10.016 2°39.866 4.584532 2.986529 31.077494 2.421144
2004-03-04 08:28:00 51°10.012 2°39.843 4.584532 2.986529 31.077494 2.421144
2004-03-04 08:28:06 51°10.006 2°39.807 4.584941 2.988424 31.099275 2.421144
2004-03-04 08:28:10 51°10.002 2°39.784 4.588667 2.993161 31.152081 2.353725
2004-03-04 08:28:16 51°9.996 2°39.749 4.58734 2.982213 31.024591 2.421144
2004-03-04 08:28:22 51°9.99 2°39.713 4.589637 2.991687 31.132655 2.387435
2004-03-04 08:28:26 51°9.986 2°39.69 4.589943 2.995266 31.172975 2.387435
2004-03-04 08:28:31 51°9.981 2°39.66 4.589943 2.995266 31.172975 2.387435
2004-03-04 08:28:36 51°9.976 2°39.631 4.593363 2.987477 31.081776 2.387435
2004-03-04 08:28:41 51°9.971 2°39.601 4.593006 2.98474 31.049498 2.353725
2004-03-04 08:28:47 51°9.965 2°39.566 4.596374 2.999582 31.219286 2.387435
2004-03-04 08:28:52 51°9.961 2°39.537 4.597191 3.000424 31.227311 2.421144
2004-03-04 08:28:56 51°9.957 2°39.513 4.59913 2.995477 31.169598 2.454853
2004-03-04 08:29:02 51°9.951 2°39.478 4.59913 2.995477 31.169598 2.454853
2004-03-04 08:29:06 51°9.947 2°39.454 4.601529 2.991898 31.127631 2.387435
2004-03-04 08:29:11 51°9.942 2°39.425 4.6001 3.00274 31.251452 2.488563
2004-03-04 08:29:16 51°9.937 2°39.395 4.602295 3.002319 31.24412 2.488563
2004-03-04 08:29:22 51°9.932 2°39.36 4.605408 2.996319 31.17431 2.353725
2004-03-04 08:29:26 51°9.928 2°39.336 4.60505 2.994529 31.150432 2.522272
2004-03-04 08:29:30 51°9.924 2°39.313 4.60505 2.994529 31.150432 2.522272
2004-03-04 08:29:36 51°9.918 2°39.278 4.60551 2.994529 31.151259 2.454853
2004-03-04 08:29:42 51°9.912 2°39.242 4.61046 3.003372 31.252073 2.421144
2004-03-04 08:29:46 51°9.908 2°39.219 4.612246 3.006425 31.284682 2.353725
2004-03-04 08:29:51 51°9.903 2°39.19 4.61199 2.996214 31.166478 2.454853
2004-03-04 08:29:56 51°9.898 2°39.16 4.613317 2.993161 31.130572 2.522272
2004-03-04 08:30:00 51°9.895 2°39.137 4.613317 2.993161 31.130572 2.522272
2004-03-04 08:30:06 51°9.889 2°39.102 4.61444 2.99474 31.147061 2.387435
2004-03-04 08:30:11 51°9.884 2°39.072 4.614695 2.996319 31.162722 2.454853
2004-03-04 08:30:16 51°9.879 2°39.043 4.617042 2.985792 31.040153 2.421144
2004-03-04 08:30:20 51°9.875 2°39.019 4.620103 3.002635 31.232818 2.488563
2004-03-04 08:30:26 51°9.869 2°38.984 4.620358 2.987582 31.05823 2.488563
2004-03-04 08:30:32 51°9.864 2°38.949 4.620358 2.987582 31.05823 2.488563
2004-03-04 08:30:36 51°9.86 2°38.925 4.621123 2.992634 31.116262 2.454853
2004-03-04 08:30:42 51°9.854 2°38.89 4.621685 2.985161 31.028781 2.6234
2004-03-04 08:30:46 51°9.85 2°38.867 4.624797 3.000529 31.202824 2.555982
2004-03-04 08:30:51 51°9.845 2°38.837 4.626327 2.997161 31.164124 2.488563
2004-03-04 08:30:56 51°9.84 2°38.808 4.626531 2.992213 31.105645 2.522272
2004-03-04 08:31:02 51°9.835 2°38.773 4.626531 2.992213 31.105645 2.522272
2004-03-04 08:31:06 51°9.831 2°38.749 4.627501 3.007793 31.283801 2.522272
2004-03-04 08:31:11 51°9.826 2°38.72 4.629694 3.006845 31.271253 2.6234
2004-03-04 08:31:16 51°9.822 2°38.691 4.628929 3.005056 31.24903 2.488563
2004-03-04 08:31:22 51°9.816 2°38.655 4.631479 2.998424 31.171189 2.690819
2004-03-04 08:31:26 51°9.812 2°38.632 4.632296 3.014004 31.349366 2.488563
2004-03-04 08:31:31 51°9.807 2°38.603 4.632296 3.014004 31.349366 2.488563
2004-03-04 08:31:36 51°9.802 2°38.573 4.632602 2.999898 31.185634 2.522272
2004-03-04 08:31:41 51°9.797 2°38.544 4.634285 3.002529 31.215034 2.522272
2004-03-04 08:31:47 51°9.792 2°38.508 4.633724 2.986739 31.033731 2.488563
2004-03-04 08:31:52 51°9.787 2°38.479 4.63505 3.002635 31.214586 2.555982
2004-03-04 08:31:56 51°9.783 2°38.456 4.636937 3.002424 31.212168 2.488563
2004-03-04 08:32:02 51°9.777 2°38.421 4.636937 3.002424 31.212168 2.488563
2004-03-04 08:32:06 51°9.774 2°38.397 4.638008 3.007056 31.263715 2.791947
2004-03-04 08:32:11 51°9.768 2°38.368 4.640355 2.996108 31.137155 2.926785
2004-03-04 08:32:16 51°9.764 2°38.338 4.639386 3.003793 31.224573 2.555982
2004-03-04 08:32:22 51°9.758 2°38.303 4.640967 3.000529 31.186268 2.555982
2004-03-04 08:32:26 51°9.754 2°38.28 4.641069 3.005266 31.238185 2.522272
2004-03-04 08:32:31 51°9.749 2°38.25 4.641069 3.005266 31.238185 2.522272
2004-03-04 08:32:36 51°9.744 2°38.221 4.644945 3.00095 31.187794 2.555982
2004-03-04 08:32:41 51°9.739 2°38.192 4.643007 3.00074 31.185376 2.724529
2004-03-04 08:32:46 51°9.735 2°38.162 4.643109 3.009372 31.283682 2.589691
2004-03-04 08:32:51 51°9.73 2°38.133 4.645659 3.013898 31.334852 2.6234
2004-03-04 08:32:56 51°9.725 2°38.103 4.645353 3.00874 31.274768 2.589691
2004-03-04 08:33:02 51°9.719 2°38.068 4.645353 3.00874 31.274768 2.589691
2004-03-04 08:33:06 51°9.715 2°38.045 4.644996 3.01853 31.387241 2.589691
2004-03-04 08:33:11 51°9.71 2°38.015 4.644435 3.007161 31.25829 2.6234
2004-03-04 08:33:16 51°9.705 2°37.986 4.645608 3.01253 31.316638 2.6234
2004-03-04 08:33:22 51°9.699 2°37.951 4.646628 2.996845 31.135704 2.724529
2004-03-04 08:33:26 51°9.696 2°37.927 4.646424 3.018004 31.378696 2.488563
2004-03-04 08:33:31 51°9.691 2°37.898 4.646424 3.018004 31.378696 2.488563
2004-03-04 08:33:36 51°9.687 2°37.868 4.648719 3.001477 31.188047 2.589691
2004-03-04 08:33:41 51°9.682 2°37.839 4.651472 3.015267 31.347249 2.522272
2004-03-04 08:33:46 51°9.677 2°37.81 4.648311 3.000634 31.177552 2.589691
2004-03-04 08:33:52 51°9.671 2°37.774 4.648719 3.009266 31.277495 2.6234
2004-03-04 08:33:56 51°9.668 2°37.751 4.647852 3.008319 31.264956 2.758238
2004-03-04 08:34:02 51°9.662 2°37.715 4.647852 3.008319 31.264956 2.758238
2004-03-04 08:34:06 51°9.658 2°37.692 4.650402 3.001687 31.187982 2.589691
2004-03-04 08:34:12 51°9.653 2°37.656 4.650096 2.999161 31.158155 2.522272
2004-03-04 08:34:16 51°9.649 2°37.633 4.649637 3.019372 31.390258 2.488563
2004-03-04 08:34:20 51°9.645 2°37.609 4.649688 3.006108 31.237914 2.724529
2004-03-04 08:34:27 51°9.639 2°37.568 4.651268 3.012846 31.315282 2.555982
2004-03-04 08:34:31 51°9.635 2°37.544 4.651268 3.012846 31.315282 2.555982
2004-03-04 08:34:36 51°9.631 2°37.514 4.651472 3.013161 31.318079 2.488563
2004-03-04 08:34:40 51°9.628 2°37.49 4.651625 3.015688 31.348761 2.65711
2004-03-04 08:34:46 51°9.625 2°37.456 4.653971 2.992318 31.078809 2.690819
2004-03-04 08:34:51 51°9.623 2°37.429 4.653665 3.012846 31.314452 2.758238
2004-03-04 08:34:56 51°9.62 2°37.405 4.656011 3.01453 31.332967 2.555982
2004-03-04 08:35:02 51°9.619 2°37.377 4.656011 3.01453 31.332967 2.555982
2004-03-04 08:35:06 51°9.618 2°37.36 4.656113 3.008529 31.262399 2.65711
2004-03-04 08:35:11 51°9.618 2°37.341 4.656878 2.994634 31.102083 2.690819
2004-03-04 08:35:16 51°9.618 2°37.323 4.652237 3.010003 31.278492 2.690819
2004-03-04 08:35:22 51°9.619 2°37.302 4.655501 3.008951 31.264747 2.589691
2004-03-04 08:35:26 51°9.62 2°37.29 4.651472 3.015583 31.339241 2.791947
2004-03-04 08:35:30 51°9.621 2°37.278 4.651472 3.015583 31.339241 2.791947
2004-03-04 08:35:36 51°9.624 2°37.261 4.652951 3.019056 31.376645 2.65711
2004-03-04 08:35:40 51°9.625 2°37.25 4.652339 3.015477 31.338863 2.6234
2004-03-04 08:35:46 51°9.628 2°37.235 4.651166 3.015372 31.335992 2.724529
2004-03-04 08:35:52 51°9.63 2°37.221 4.651268 3.01653 31.351784 2.724529
2004-03-04 08:35:56 51°9.631 2°37.212 4.651064 2.96716 30.786246 2.6234
2004-03-04 08:36:02 51°9.632 2°37.199 4.651064 2.96716 30.786246 2.6234
2004-03-04 08:36:06 51°9.633 2°37.191 4.650962 3.008424 31.259533 2.724529
2004-03-04 08:36:11 51°9.633 2°37.181 4.650249 3.013898 31.324051 2.724529
2004-03-04 08:36:16 51°9.632 2°37.171 4.650504 3.011161 31.291789 2.65711
2004-03-04 08:36:20 51°9.631 2°37.164 4.650198 3.014004 31.32609 2.859366
2004-03-04 08:36:27 51°9.628 2°37.152 4.653971 3.008951 31.267234 2.859366
2004-03-04 08:36:31 51°9.627 2°37.146 4.653971 3.008951 31.267234 2.859366
2004-03-04 08:36:36 51°9.624 2°37.139 4.65647 3.002634 31.196377 2.724529
2004-03-04 08:36:41 51°9.621 2°37.133 4.659325 2.994845 31.106973 2.522272
2004-03-04 08:36:46 51°9.619 2°37.127 4.65698 3.013267 31.320119 2.555982
2004-03-04 08:36:51 51°9.616 2°37.121 4.657336 3.010635 31.287404 2.522272
2004-03-04 08:36:56 51°9.613 2°37.116 4.657234 2.99874 31.148367 2.522272
2004-03-04 08:37:02 51°9.61 2°37.11 4.657234 2.99874 31.148367 2.522272
2004-03-04 08:37:06 51°9.608 2°37.106 4.658254 3.00674 31.238539 2.555982
2004-03-04 08:37:11 51°9.606 2°37.101 4.658611 3.015056 31.333196 2.555982
2004-03-04 08:37:16 51°9.603 2°37.097 4.661415 3.01832 31.37234 2.65711
2004-03-04 08:37:22 51°9.6 2°37.092 4.663965 3.005582 31.225246 2.6234
2004-03-04 08:37:26 51°9.598 2°37.088 4.663047 2.968213 30.795042 2.555982
2004-03-04 08:37:31 51°9.596 2°37.084 4.663047 2.968213 30.795042 2.555982
2004-03-04 08:37:36 51°9.593 2°37.08 4.665035 3.013161 31.309776 2.589691
2004-03-04 08:37:42 51°9.59 2°37.076 4.662486 3.011793 31.292404 2.488563
2004-03-04 08:37:46 51°9.588 2°37.073 4.663251 3.01474 31.324587 2.6234
2004-03-04 08:37:52 51°9.586 2°37.069 4.6632 3.011687 31.289537 2.6234
2004-03-04 08:37:56 51°9.584 2°37.067 4.662945 3.016109 31.340301 2.791947
2004-03-04 08:38:02 51°9.581 2°37.063 4.662945 3.016109 31.340301 2.791947
2004-03-04 08:38:06 51°9.579 2°37.06 4.662282 3.021057 31.395457 2.488563
2004-03-04 08:38:12 51°9.577 2°37.057 4.664118 2.991476 31.056794 2.589691
2004-03-04 08:38:16 51°9.575 2°37.055 4.662435 3.015793 31.335844 2.522272
2004-03-04 08:38:22 51°9.573 2°37.051 4.661008 3.006003 31.223458 2.522272
2004-03-04 08:38:26 51°9.571 2°37.049 4.661415 3.018635 31.369314 2.522272
2004-03-04 08:38:30 51°9.57 2°37.047 4.661415 3.018635 31.369314 2.522272
2004-03-04 08:38:36 51°9.567 2°37.044 4.6632 3.000424 31.160261 2.522272
2004-03-04 08:38:42 51°9.565 2°37.041 4.661619 3.009793 31.267784 2.522272
2004-03-04 08:38:46 51°9.564 2°37.039 4.661314 3.023478 31.424932 2.589691
2004-03-04 08:38:51 51°9.562 2°37.037 4.66009 3.019267 31.376567 2.724529
2004-03-04 08:38:56 51°9.56 2°37.034 4.658968 2.992844 31.073313 2.522272
2004-03-04 08:39:02 51°9.558 2°37.032 4.658968 2.992844 31.073313 2.522272
2004-03-04 08:39:06 51°9.557 2°37.03 4.657082 3.006845 31.233951 2.522272
2004-03-04 08:39:11 51°9.555 2°37.028 4.659784 3.01253 31.299205 2.6234
2004-03-04 08:39:16 51°9.553 2°37.026 4.659529 3.009793 31.269442 2.555982
2004-03-04 08:39:22 51°9.551 2°37.024 4.658203 3.011477 31.289608 2.488563
2004-03-04 08:39:26 51°9.55 2°37.022 4.659019 3.010214 31.276763 2.454853
2004-03-04 08:39:30 51°9.549 2°37.021 4.659019 3.010214 31.276763 2.454853
2004-03-04 08:39:36 51°9.547 2°37.019 4.658356 2.99495 31.101583 2.454853
2004-03-04 08:39:40 51°9.546 2°37.017 4.657642 3.019056 31.378308 2.454853
2004-03-04 08:39:47 51°9.544 2°37.015 4.657795 3.004003 31.207121 2.421144
2004-03-04 08:39:51 51°9.543 2°37.013 4.662231 2.980844 30.940633 2.488563
2004-03-04 08:39:56 51°9.541 2°37.011 4.659427 3.006529 31.236122 2.454853
2004-03-04 08:40:00 51°9.539 2°37.009 4.659427 3.006529 31.236122 2.454853
2004-03-04 08:40:06 51°9.536 2°37.006 4.660906 2.966213 30.77376 2.454853
2004-03-04 08:40:11 51°9.533 2°37.002 4.662027 3.006214 31.231669 2.421144
2004-03-04 08:40:16 51°9.53 2°36.999 4.660447 3.008635 31.258635 2.488563
2004-03-04 08:40:20 51°9.527 2°36.995 4.660855 2.998634 31.14303 2.387435
2004-03-04 08:40:26 51°9.524 2°36.99 4.665851 3.008845 31.259394 2.421144
2004-03-04 08:40:31 51°9.521 2°36.985 4.665851 3.008845 31.259394 2.421144
2004-03-04 08:40:36 51°9.517 2°36.98 4.66009 3.002108 31.18124 2.488563
2004-03-04 08:40:42 51°9.514 2°36.973 4.656011 2.992318 31.069746 2.454853
2004-03-04 08:40:47 51°9.51 2°36.967 4.656215 2.998739 31.142587 2.387435
2004-03-04 08:40:50 51°9.509 2°36.963 4.654532 2.995371 31.103116 2.421144
2004-03-04 08:40:56 51°9.505 2°36.955 4.651625 2.996213 31.111952 2.286306
2004-03-04 08:41:02 51°9.501 2°36.946 4.651625 2.996213 31.111952 2.286306
2004-03-04 08:41:07 51°9.498 2°36.939 4.646934 3.008529 31.256598 2.320016
2004-03-04 08:41:11 51°9.496 2°36.933 4.650249 2.99716 31.126946 2.353725
2004-03-04 08:41:16 51°9.493 2°36.925 4.642446 2.979055 30.922577 2.387435
2004-03-04 08:41:22 51°9.49 2°36.916 4.641528 3.00274 31.195931 2.421144
2004-03-04 08:41:26 51°9.487 2°36.909 4.639794 2.992318 31.078809 2.353725
2004-03-04 08:41:31 51°9.484 2°36.901 4.639794 2.992318 31.078809 2.353725
2004-03-04 08:41:36 51°9.482 2°36.892 4.639131 2.997582 31.140858 2.421144
2004-03-04 08:41:42 51°9.478 2°36.882 4.635917 3.001792 31.192499 2.353725
2004-03-04 08:41:46 51°9.476 2°36.876 4.638161 2.979687 30.940482 2.421144
2004-03-04 08:41:52 51°9.473 2°36.866 4.633571 2.977266 30.915176 2.421144
2004-03-04 08:41:56 51°9.471 2°36.859 4.636274 2.995161 31.120499 2.320016
2004-03-04 08:42:02 51°9.468 2°36.85 4.636274 2.995161 31.120499 2.320016
2004-03-04 08:42:06 51°9.466 2°36.843 4.636478 3.004529 31.230551 2.320016
2004-03-04 08:42:10 51°9.463 2°36.837 4.630612 2.986634 31.025114 2.387435
2004-03-04 08:42:16 51°9.461 2°36.828 4.630204 2.978108 30.928115 2.522272
2004-03-04 08:42:22 51°9.458 2°36.819 4.630867 2.997371 31.14918 2.488563
2004-03-04 08:42:26 51°9.456 2°36.813 4.628725 2.995055 31.124244 2.387435
2004-03-04 08:42:31 51°9.453 2°36.806 4.628725 2.995055 31.124244 2.387435
2004-03-04 08:42:36 51°9.451 2°36.799 4.627092 2.994108 31.114193 2.488563
2004-03-04 08:42:42 51°9.448 2°36.79 4.631939 2.992003 31.094149 2.286306
2004-03-04 08:42:46 51°9.446 2°36.785 4.628521 2.993792 31.114695 2.522272
2004-03-04 08:42:52 51°9.443 2°36.777 4.626123 2.99674 31.149366 2.387435
2004-03-04 08:42:56 51°9.441 2°36.772 4.622501 2.996108 31.143765 2.454853
2004-03-04 08:43:02 51°9.438 2°36.764 4.622501 2.996108 31.143765 2.454853
2004-03-04 08:43:06 51°9.436 2°36.759 4.623113 2.994319 31.121564 2.421144
2004-03-04 08:43:11 51°9.433 2°36.752 4.623623 2.984213 31.006381 2.454853
2004-03-04 08:43:16 51°9.431 2°36.746 4.623113 2.96295 30.762474 2.522272
2004-03-04 08:43:22 51°9.428 2°36.738 4.625613 2.991266 31.089814 2.353725
2004-03-04 08:43:26 51°9.425 2°36.733 4.624389 2.995055 31.134156 2.421144
2004-03-04 08:43:31 51°9.423 2°36.727 4.624389 2.995055 31.134156 2.421144
2004-03-04 08:43:36 51°9.42 2°36.72 4.622807 2.995898 31.144654 2.488563
2004-03-04 08:43:41 51°9.418 2°36.713 4.623062 2.998319 31.171635 2.454853
2004-03-04 08:43:46 51°9.416 2°36.707 4.624083 2.996424 31.149045 2.454853
2004-03-04 08:43:51 51°9.413 2°36.7 4.623776 2.976318 30.919073 2.421144
2004-03-04 08:43:56 51°9.411 2°36.694 4.625358 2.997792 31.167243 2.387435
2004-03-04 08:44:02 51°9.408 2°36.686 4.625358 2.997792 31.167243 2.387435
2004-03-04 08:44:06 51°9.406 2°36.681 4.624899 2.996003 31.146689 2.454853
2004-03-04 08:44:10 51°9.404 2°36.676 4.622705 2.989792 31.075368 2.421144
2004-03-04 08:44:16 51°9.402 2°36.668 4.625919 2.995898 31.144654 2.353725
2004-03-04 08:44:22 51°9.399 2°36.66 4.62699 2.982739 30.99358 2.353725
2004-03-04 08:44:26 51°9.397 2°36.655 4.625358 2.992845 31.111247 2.387435
2004-03-04 08:44:30 51°9.396 2°36.649 4.625358 2.992845 31.111247 2.387435
2004-03-04 08:44:36 51°9.394 2°36.641 4.62745 2.987897 31.053613 2.353725
2004-03-04 08:44:42 51°9.392 2°36.633 4.62546 2.997161 31.159162 2.454853
2004-03-04 08:44:46 51°9.39 2°36.628 4.627705 2.988213 31.056415 2.421144
2004-03-04 08:44:51 51°9.388 2°36.621 4.626429 2.987161 31.042682 2.522272
2004-03-04 08:44:56 51°9.387 2°36.614 4.626735 2.994108 31.12245 2.454853
2004-03-04 08:45:02 51°9.385 2°36.606 4.626735 2.994108 31.12245 2.454853
2004-03-04 08:45:06 51°9.383 2°36.601 4.628674 2.991792 31.095032 2.488563
2004-03-04 08:45:12 51°9.381 2°36.593 4.628674 2.990424 31.080145 2.421144
2004-03-04 08:45:16 51°9.38 2°36.587 4.627705 3.000319 31.192953 2.353725
2004-03-04 08:45:22 51°9.378 2°36.579 4.631377 2.993582 31.11558 2.353725
2004-03-04 08:45:26 51°9.377 2°36.574 4.627858 2.987266 31.042243 2.488563
2004-03-04 08:45:32 51°9.375 2°36.565 4.627858 2.987266 31.042243 2.488563
2004-03-04 08:45:36 51°9.374 2°36.56 4.628878 2.993476 31.111894 2.387435
2004-03-04 08:45:40 51°9.373 2°36.554 4.629235 2.991687 31.092173 2.454853
2004-03-04 08:45:47 51°9.37 2°36.544 4.629847 2.986739 31.035378 2.488563
2004-03-04 08:45:51 51°9.369 2°36.538 4.63403 2.994319 31.12239 2.488563
2004-03-04 08:45:56 51°9.368 2°36.531 4.628674 2.998845 31.173544 2.454853
2004-03-04 08:46:02 51°9.366 2°36.522 4.628674 2.998845 31.173544 2.454853
2004-03-04 08:46:06 51°9.364 2°36.517 4.629847 2.986529 31.032961 2.488563
2004-03-04 08:46:10 51°9.363 2°36.511 4.632398 2.996213 31.143321 2.555982
2004-03-04 08:46:16 51°9.361 2°36.502 4.633469 2.996003 31.139251 2.454853
2004-03-04 08:46:20 51°9.36 2°36.496 4.633367 2.995898 31.138043 2.522272
2004-03-04 08:46:26 51°9.358 2°36.488 4.631786 2.989582 31.06553 2.454853
2004-03-04 08:46:31 51°9.356 2°36.481 4.631786 2.989582 31.06553 2.454853
2004-03-04 08:46:36 51°9.355 2°36.474 4.635713 2.986213 31.026044 2.488563
2004-03-04 08:46:42 51°9.353 2°36.465 4.636631 2.991792 31.090082 2.555982
2004-03-04 08:46:46 51°9.352 2°36.46 4.636529 3.002003 31.205676 2.488563
2004-03-04 08:46:50 51°9.351 2°36.454 4.638621 2.99095 31.07959 2.555982
2004-03-04 08:46:56 51°9.349 2°36.446 4.639794 3.005372 31.243538 2.589691
2004-03-04 08:47:02 51°9.347 2°36.438 4.639794 3.005372 31.243538 2.589691
2004-03-04 08:47:06 51°9.346 2°36.432 4.63908 2.988108 31.044496 2.488563
2004-03-04 08:47:10 51°9.345 2°36.427 4.639794 3.004214 31.229409 2.555982
2004-03-04 08:47:16 51°9.343 2°36.419 4.639794 3.003687 31.221707 2.522272
2004-03-04 08:47:22 51°9.341 2°36.411 4.640202 3.003898 31.224125 2.690819
2004-03-04 08:47:26 51°9.34 2°36.406 4.640151 2.997898 31.154397 2.387435
2004-03-04 08:47:31 51°9.339 2°36.399 4.640151 2.997898 31.154397 2.387435
2004-03-04 08:47:36 51°9.337 2°36.393 4.641375 2.999371 31.171318 2.488563
2004-03-04 08:47:40 51°9.336 2°36.388 4.64367 3.002319 31.204335 2.522272
2004-03-04 08:47:46 51°9.334 2°36.38 4.643976 3.002845 31.21038 2.454853
2004-03-04 08:47:51 51°9.332 2°36.374 4.643313 2.99674 31.138624 2.65711
2004-03-04 08:47:56 51°9.33 2°36.367 4.643313 3.007898 31.266754 2.488563
2004-03-04 08:48:02 51°9.328 2°36.36 4.643313 3.007898 31.266754 2.488563
2004-03-04 08:48:06 51°9.327 2°36.355 4.644027 3.00095 31.186139 2.555982
2004-03-04 08:48:11 51°9.325 2°36.349 4.644231 3.003056 31.210314 2.724529
2004-03-04 08:48:16 51°9.323 2°36.343 4.645251 3.000213 31.177679 3.027913
2004-03-04 08:48:22 51°9.321 2°36.335 4.644996 2.99695 31.140215 2.454853
2004-03-04 08:48:27 51°9.32 2°36.329 4.647138 3.008108 31.266684 2.454853
2004-03-04 08:48:30 51°9.319 2°36.325 4.647138 3.008108 31.266684 2.454853
2004-03-04 08:48:36 51°9.317 2°36.318 4.647546 3.003687 31.215083 2.488563
2004-03-04 08:48:42 51°9.315 2°36.311 4.645914 3.006635 31.248101 2.6234
2004-03-04 08:48:46 51°9.313 2°36.306 4.649025 2.992424 31.084138 2.522272
2004-03-04 08:48:50 51°9.312 2°36.302 4.648923 2.994003 31.101433 2.589691
2004-03-04 08:48:56 51°9.31 2°36.294 4.646883 2.994424 31.10709 2.6234
2004-03-04 08:49:02 51°9.308 2°36.287 4.646883 2.994424 31.10709 2.6234
2004-03-04 08:49:06 51°9.306 2°36.282 4.646934 3.00495 31.225447 2.555982
2004-03-04 08:49:11 51°9.305 2°36.276 4.6452 3.002424 31.196441 2.522272
2004-03-04 08:49:16 51°9.303 2°36.269 4.646373 3.000424 31.174308 2.555982
2004-03-04 08:49:22 51°9.301 2°36.262 4.648464 3.00495 31.227103 2.522272
2004-03-04 08:49:26 51°9.3 2°36.257 4.644537 2.992529 31.085346 2.555982
2004-03-04 08:49:31 51°9.298 2°36.251 4.644537 2.992529 31.085346 2.555982
2004-03-04 08:49:36 51°9.297 2°36.245 4.646373 3.003898 31.215844 2.522272
2004-03-04 08:49:42 51°9.295 2°36.237 4.646883 2.993792 31.100666 2.6234
2004-03-04 08:49:47 51°9.293 2°36.231 4.646526 3.000213 31.172718 2.65711
2004-03-04 08:49:52 51°9.292 2°36.225 4.645659 2.954213 30.647694 2.65711
2004-03-04 08:49:56 51°9.29 2°36.22 4.645251 3.013898 31.332359 2.690819
2004-03-04 08:50:02 51°9.289 2°36.213 4.645251 3.013898 31.332359 2.690819
2004-03-04 08:50:06 51°9.287 2°36.208 4.645455 3.005161 31.230349 2.555982
2004-03-04 08:50:11 51°9.286 2°36.202 4.64622 3.008214 31.266234 2.488563
2004-03-04 08:50:16 51°9.284 2°36.196 4.645965 3.000424 31.177615 2.65711
2004-03-04 08:50:22 51°9.282 2°36.189 4.644486 2.998634 31.157071 2.522272
2004-03-04 08:50:26 51°9.281 2°36.184 4.643313 3.005582 31.236841 2.522272
2004-03-04 08:50:30 51°9.279 2°36.18 4.643313 3.005582 31.236841 2.522272
2004-03-04 08:50:36 51°9.277 2°36.173 4.643619 2.999055 31.161079 2.488563
2004-03-04 08:50:42 51°9.275 2°36.166 4.645659 3.007898 31.261778 2.522272
2004-03-04 08:50:46 51°9.273 2°36.161 4.643211 2.995476 31.119997 2.6234
2004-03-04 08:50:52 51°9.271 2°36.155 4.642089 2.986845 31.020947 2.690819
2004-03-04 08:50:56 51°9.269 2°36.15 4.645455 3.000529 31.179651 2.758238
2004-03-04 08:51:00 51°9.268 2°36.146 4.645455 3.000529 31.179651 2.758238
2004-03-04 08:51:06 51°9.265 2°36.139 4.644945 3.006951 31.251727 2.589691
2004-03-04 08:51:12 51°9.263 2°36.132 4.641069 3.001266 31.187284 2.65711
2004-03-04 08:51:16 51°9.261 2°36.128 4.644843 2.971476 30.846333 2.589691
2004-03-04 08:51:22 51°9.259 2°36.121 4.645761 2.986634 31.019354 2.522272
2004-03-04 08:51:26 51°9.257 2°36.117 4.641273 2.999792 31.171191 2.6234
2004-03-04 08:51:31 51°9.255 2°36.111 4.641273 2.999792 31.171191 2.6234
2004-03-04 08:51:36 51°9.253 2°36.105 4.641783 2.996634 31.135764 2.522272
2004-03-04 08:51:42 51°9.251 2°36.099 4.646424 3.000108 31.17399 2.555982
2004-03-04 08:51:46 51°9.249 2°36.094 4.644384 2.999055 31.161905 2.454853
2004-03-04 08:51:50 51°9.247 2°36.09 4.641783 3.00274 31.205032 2.791947
2004-03-04 08:51:56 51°9.245 2°36.083 4.64061 3.007161 31.256632 2.555982
2004-03-04 08:52:02 51°9.243 2°36.076 4.64061 3.007161 31.256632 2.555982
2004-03-04 08:52:06 51°9.241 2°36.071 4.642905 2.979266 30.935653 2.488563